M I D A S
Marine Information and Data Acquisition System
Tripno 764 of the Zeeleeuw from 2004-08-20 06:23:16 to 2004-08-20 11:06:25
Back to CruiseResearch ActivitiesStationsMapUnderway DataData graphs

EquipmentUnitsComment
TimeDGPSUTC
LatitudeDGPSDM.mWGS84
LongitudeDGPSDM.mWGS84
TemperatureSBE03/SBE38deg celciusITS90
ConductivitySBE21S/mITS90
SalinitySBE21 Practical Salinity Units
ChlorophylAChelsea fluorimeterg/lCalibrated in Aceton
Missing or incorrect values are displayed as -999
Sea surface data collected by the RV Zeeleeuw from 2004-08-20 06:23:16 to 2004-08-20 11:06:25
                                                                                    Next 1000 lines
Time Latitude Longitude Temperature Conductivity Salinity ChlorophylA
2004-08-20 06:23:24 51°13.582 2°56.086 22.254446 0.086663 0.445262 -0.74754
2004-08-20 06:23:26 51°13.581 2°56.089 22.254446 0.086663 0.445262 -0.74754
2004-08-20 06:23:36 51°13.573 2°56.103 22.251506 0.086663 0.445209 -0.781249
2004-08-20 06:23:39 51°13.57 2°56.108 22.251741 0.086559 0.44465 -0.74754
2004-08-20 06:23:45 51°13.566 2°56.117 22.251741 0.086559 0.44465 -0.74754
2004-08-20 06:23:52 51°13.561 2°56.127 22.252251 0.086663 0.445209 -0.781249
2004-08-20 06:23:55 51°13.559 2°56.131 22.256484 0.086559 0.444682 -0.74754
2004-08-20 06:23:59 51°13.556 2°56.137 22.260051 0.086559 0.444715 -0.71383
2004-08-20 06:24:09 51°13.549 2°56.151 22.269144 0.086559 0.444755 -0.781249
2004-08-20 06:24:12 51°13.548 2°56.156 22.311106 0.086559 0.444787 -0.781249
2004-08-20 06:24:19 51°13.544 2°56.167 22.343021 0.086559 0.44482 -0.74754
2004-08-20 06:24:24 51°13.542 2°56.176 22.333037 0.086663 0.445295 -0.781249
2004-08-20 06:24:28 51°13.542 2°56.183 22.333037 0.086663 0.445295 -0.781249
2004-08-20 06:24:34 51°13.541 2°56.193 22.331157 0.086663 0.445157 -0.74754
2004-08-20 06:24:39 51°13.542 2°56.202 22.318939 0.086663 0.445157 -0.71383
2004-08-20 06:24:43 51°13.543 2°56.208 22.316237 0.086663 0.445235 -0.74754
2004-08-20 06:24:47 51°13.544 2°56.214 22.285485 0.086559 0.444814 -0.74754
2004-08-20 06:24:54 51°13.546 2°56.224 22.246958 0.086663 0.445479 -0.74754
2004-08-20 06:24:59 51°13.547 2°56.229 22.246958 0.086663 0.445479 -0.74754
2004-08-20 06:25:03 51°13.548 2°56.232 22.276237 0.086559 0.445011 -0.74754
2004-08-20 06:25:08 51°13.549 2°56.235 22.263226 0.086663 0.445591 -0.74754
2004-08-20 06:25:15 51°13.55 2°56.236 22.294183 0.086663 0.445584 -0.74754
2004-08-20 06:25:23 51°13.549 2°56.236 22.255269 0.086559 0.444985 -0.74754
2004-08-20 06:25:27 51°13.548 2°56.235 22.261815 0.086663 0.445479 -0.781249
2004-08-20 06:25:31 51°13.548 2°56.234 22.281096 0.086559 0.44484 -0.74754
2004-08-20 06:25:35 51°13.547 2°56.232 22.285093 0.086559 0.444768 -0.74754
2004-08-20 06:25:43 51°13.545 2°56.228 22.271535 0.086559 0.444728 -0.74754
2004-08-20 06:25:48 51°13.543 2°56.224 22.271535 0.086559 0.444728 -0.74754
2004-08-20 06:25:53 51°13.542 2°56.221 22.285367 0.086663 0.445275 -0.74754
2004-08-20 06:25:56 51°13.542 2°56.22 22.292537 0.086559 0.444748 -0.74754
2004-08-20 06:26:03 51°13.54 2°56.217 22.289403 0.086559 0.444781 -0.74754
2004-08-20 06:26:08 51°13.54 2°56.216 22.298571 0.086559 0.444827 -0.74754
2004-08-20 06:26:13 51°13.54 2°56.216 22.310714 0.086663 0.445413 -0.74754
2004-08-20 06:26:17 51°13.541 2°56.217 22.310714 0.086663 0.445413 -0.74754
2004-08-20 06:26:23 51°13.543 2°56.218 22.317412 0.086559 0.444879 -0.74754
2004-08-20 06:26:27 51°13.544 2°56.219 22.326419 0.086559 0.444879 -0.74754
2004-08-20 06:26:33 51°13.546 2°56.22 22.304016 0.086559 0.444886 -0.71383
2004-08-20 06:26:37 51°13.547 2°56.22 22.263931 0.086559 0.444873 -0.74754
2004-08-20 06:26:43 51°13.548 2°56.221 22.298845 0.086559 0.44486 -0.781249
2004-08-20 06:26:48 51°13.548 2°56.221 22.298845 0.086559 0.44486 -0.781249
2004-08-20 06:26:53 51°13.548 2°56.222 22.278393 0.086559 0.444853 -0.74754
2004-08-20 06:26:56 51°13.547 2°56.221 22.288776 0.086559 0.444853 -0.74754
2004-08-20 06:26:59 51°13.546 2°56.221 22.291911 0.086559 0.444853 -0.74754
2004-08-20 06:27:07 51°13.543 2°56.221 22.28427 0.086559 0.444866 -0.74754
2004-08-20 06:27:12 51°13.541 2°56.22 22.294496 0.086663 0.445439 -0.74754
2004-08-20 06:27:17 51°13.539 2°56.22 22.294496 0.086663 0.445439 -0.74754
2004-08-20 06:27:23 51°13.538 2°56.219 22.293164 0.086559 0.444893 -0.781249
2004-08-20 06:27:28 51°13.538 2°56.219 22.325636 0.086559 0.444906 -0.71383
2004-08-20 06:27:33 51°13.54 2°56.219 22.375274 0.086663 0.445459 -0.74754
2004-08-20 06:27:35 51°13.541 2°56.219 22.338323 0.086559 0.444919 -0.74754
2004-08-20 06:27:43 51°13.545 2°56.218 22.313417 0.086559 0.444919 -0.71383
2004-08-20 06:27:48 51°13.546 2°56.219 22.313417 0.086559 0.444919 -0.71383
2004-08-20 06:27:52 51°13.547 2°56.219 22.268987 0.086559 0.444912 -0.71383
2004-08-20 06:27:57 51°13.546 2°56.219 22.299864 0.086559 0.444919 -0.74754
2004-08-20 06:28:03 51°13.546 2°56.22 22.273377 0.086559 0.444925 -0.74754
2004-08-20 06:28:07 51°13.545 2°56.22 22.271456 0.086559 0.444939 -0.74754
2004-08-20 06:28:12 51°13.543 2°56.222 22.294026 0.086559 0.444952 -0.71383
2004-08-20 06:28:15 51°13.541 2°56.222 22.294026 0.086559 0.444952 -0.71383
2004-08-20 06:28:23 51°13.537 2°56.225 22.266322 0.086559 0.444958 -0.74754
2004-08-20 06:28:28 51°13.534 2°56.226 22.286621 0.086559 0.444978 -0.74754
2004-08-20 06:28:33 51°13.531 2°56.228 22.294614 0.086559 0.444971 -0.781249
2004-08-20 06:28:37 51°13.529 2°56.229 22.284545 0.086559 0.444965 -0.781249
2004-08-20 06:28:43 51°13.527 2°56.229 22.322464 0.086559 0.444952 -0.74754
2004-08-20 06:28:48 51°13.528 2°56.229 22.322464 0.086559 0.444952 -0.74754
2004-08-20 06:28:53 51°13.529 2°56.227 22.358327 0.086559 0.444945 -0.74754
2004-08-20 06:28:57 51°13.531 2°56.224 22.338871 0.086559 0.444945 -0.74754
2004-08-20 06:29:03 51°13.534 2°56.218 22.356174 0.086559 0.444952 -0.74754
2004-08-20 06:29:07 51°13.536 2°56.214 22.325401 0.086559 0.444958 -0.781249
2004-08-20 06:29:13 51°13.539 2°56.206 22.286308 0.086559 0.444971 -0.781249
2004-08-20 06:29:17 51°13.542 2°56.2 22.286308 0.086559 0.444971 -0.781249
2004-08-20 06:29:22 51°13.544 2°56.192 22.297944 0.086559 0.444991 -0.781249
2004-08-20 06:29:27 51°13.547 2°56.183 22.294261 0.086559 0.444998 -0.74754
2004-08-20 06:29:37 51°13.554 2°56.163 22.278236 0.086559 0.445011 -0.74754
2004-08-20 06:29:42 51°13.557 2°56.151 22.272828 0.086559 0.444998 -0.74754
2004-08-20 06:29:47 51°13.561 2°56.139 22.272828 0.086559 0.444998 -0.74754
2004-08-20 06:29:50 51°13.563 2°56.132 22.268674 0.086559 0.445004 -0.74754
2004-08-20 06:29:57 51°13.569 2°56.114 22.270594 0.086559 0.444991 -0.74754
2004-08-20 06:30:01 51°13.572 2°56.103 22.263226 0.086559 0.444985 -0.781249
2004-08-20 06:30:07 51°13.578 2°56.087 22.26158 0.086559 0.444991 -0.781249
2004-08-20 06:30:18 51°13.589 2°56.057 22.269144 0.086559 0.445004 -0.74754
2004-08-20 06:30:23 51°13.595 2°56.042 22.269144 0.086559 0.445004 -0.74754
2004-08-20 06:30:28 51°13.6 2°56.028 22.27275 0.086559 0.445018 -0.74754
2004-08-20 06:30:31 51°13.604 2°56.02 22.264245 0.086559 0.445024 -0.74754
2004-08-20 06:30:38 51°13.612 2°56 22.278824 0.086559 0.445037 -0.74754
2004-08-20 06:30:43 51°13.619 2°55.986 22.278824 0.086559 0.445044 -0.781249
2004-08-20 06:30:48 51°13.625 2°55.971 22.274317 0.086559 0.445044 -0.74754
2004-08-20 06:30:53 51°13.631 2°55.956 22.274317 0.086559 0.445044 -0.74754
2004-08-20 06:30:58 51°13.637 2°55.941 22.278706 0.086559 0.445057 -0.74754
2004-08-20 06:31:03 51°13.643 2°55.926 22.281998 0.086559 0.445057 -0.71383
2004-08-20 06:31:07 51°13.648 2°55.914 22.277766 0.086559 0.445064 -0.71383
2004-08-20 06:31:19 51°13.663 2°55.878 22.285367 0.086559 0.445083 -0.74754
2004-08-20 06:31:24 51°13.669 2°55.863 22.28478 0.086559 0.445083 -0.781249
2004-08-20 06:31:27 51°13.673 2°55.853 22.28478 0.086559 0.445083 -0.781249
2004-08-20 06:31:32 51°13.679 2°55.838 22.284545 0.086559 0.44509 -0.71383
2004-08-20 06:31:43 51°13.694 2°55.805 22.270006 0.086559 0.445103 -0.71383
2004-08-20 06:31:48 51°13.701 2°55.791 22.27514 0.086559 0.445096 -0.71383
2004-08-20 06:31:51 51°13.706 2°55.782 22.27514 0.086559 0.445096 -0.71383
2004-08-20 06:31:58 51°13.716 2°55.762 22.277217 0.086559 0.445096 -0.74754
2004-08-20 06:32:03 51°13.724 2°55.748 22.282703 0.086559 0.445096 -0.71383
2004-08-20 06:32:07 51°13.73 2°55.737 22.115231 0.086559 0.447081 0.567127
2004-08-20 06:32:21 51°13.754 2°55.701 20.778349 0.227751 1.230032 3.162751
2004-08-20 06:32:26 51°13.763 2°55.69 20.636813 1.843322 11.547257 2.08405
2004-08-20 06:32:31 51°13.773 2°55.679 20.540706 2.388747 15.383957 1.207606
2004-08-20 06:32:36 51°13.782 2°55.668 20.488886 2.668369 17.50644 0.93793
2004-08-20 06:32:40 51°13.79 2°55.66 20.488886 2.668369 17.50644 0.93793
2004-08-20 06:32:47 51°13.804 2°55.646 20.447242 3.802156 26.071556 1.039059
2004-08-20 06:32:48 51°13.806 2°55.644 20.427054 4.04482 28.161011 0.93793
2004-08-20 06:32:59 51°13.83 2°55.627 20.389479 4.136339 28.999641 0.904221
2004-08-20 06:33:03 51°13.838 2°55.621 20.367141 4.182314 29.45617 0.735674
2004-08-20 06:33:12 51°13.858 2°55.609 20.317651 4.211314 29.802167 0.769383
2004-08-20 06:33:15 51°13.864 2°55.605 20.290938 4.222914 29.93348 0.769383
2004-08-20 06:33:29 51°13.896 2°55.584 20.267642 4.21353 29.883884 0.904221
2004-08-20 06:33:32 51°13.902 2°55.58 20.274132 4.245798 30.155543 0.735674
2004-08-20 06:33:39 51°13.918 2°55.568 20.271754 4.263726 30.322552 0.836802
2004-08-20 06:33:44 51°13.929 2°55.559 20.252967 4.280494 30.477209 0.93793
2004-08-20 06:33:47 51°13.936 2°55.554 20.231837 4.297367 30.631501 1.005349
2004-08-20 06:33:52 51°13.948 2°55.546 20.215218 4.314347 30.784387 0.93793
2004-08-20 06:34:03 51°13.973 2°55.528 20.208238 4.315823 30.803272 0.93793
2004-08-20 06:34:08 51°13.985 2°55.52 20.186812 4.272375 30.463991 1.005349
2004-08-20 06:34:13 51°13.996 2°55.512 20.187579 4.341451 31.021364 0.97164
2004-08-20 06:34:18 51°14.008 2°55.503 20.179305 4.349994 31.101356 0.97164
2004-08-20 06:34:23 51°14.02 2°55.495 20.179305 4.349994 31.101356 0.97164
2004-08-20 06:34:27 51°14.03 2°55.488 20.180516 4.368451 31.261163 1.005349
2004-08-20 06:34:32 51°14.043 2°55.48 20.183987 4.374779 31.323672 1.039059
2004-08-20 06:34:37 51°14.055 2°55.471 20.191049 4.383217 31.403122 1.072768
2004-08-20 06:34:44 51°14.072 2°55.459 20.20376 4.375834 31.349768 1.106477
2004-08-20 06:34:48 51°14.081 2°55.451 20.200774 4.384694 31.427964 1.106477
2004-08-20 06:34:53 51°14.094 2°55.442 20.200774 4.384694 31.427964 1.106477
2004-08-20 06:34:58 51°14.106 2°55.432 20.21425 4.382584 31.412119 1.072768
2004-08-20 06:35:03 51°14.119 2°55.422 20.209933 4.379947 31.38997 1.072768
2004-08-20 06:35:08 51°14.132 2°55.412 20.21667 4.376994 31.364772 1.005349
2004-08-20 06:35:11 51°14.14 2°55.404 20.22619 4.371193 31.314197 1.072768
2004-08-20 06:35:19 51°14.16 2°55.385 20.231958 4.363916 31.254428 1.005349
2004-08-20 06:35:23 51°14.171 2°55.375 20.231958 4.363916 31.254428 1.005349
2004-08-20 06:35:27 51°14.181 2°55.365 20.223447 4.350522 31.142682 0.97164
2004-08-20 06:35:39 51°14.211 2°55.329 20.207109 4.318461 30.881977 0.904221
2004-08-20 06:35:43 51°14.22 2°55.316 20.196336 4.300955 30.738215 0.836802
2004-08-20 06:35:52 51°14.241 2°55.286 20.181807 4.277859 30.551061 0.735674
2004-08-20 06:35:55 51°14.247 2°55.275 20.164289 4.257506 30.390465 0.769383
2004-08-20 06:36:09 51°14.279 2°55.223 20.149875 4.2303 30.184951 0.735674
2004-08-20 06:36:12 51°14.286 2°55.211 20.142324 4.221758 30.121989 0.836802
2004-08-20 06:36:19 51°14.301 2°55.184 20.142001 4.208261 30.022097 0.803093
2004-08-20 06:36:24 51°14.313 2°55.164 20.133197 4.196029 29.937732 0.803093
2004-08-20 06:36:27 51°14.319 2°55.152 20.133197 4.196029 29.937732 0.803093
2004-08-20 06:36:32 51°14.331 2°55.132 20.126653 4.186645 29.871526 0.769383
2004-08-20 06:36:43 51°14.356 2°55.087 20.114131 4.167137 29.723841 0.735674
2004-08-20 06:36:48 51°14.367 2°55.066 20.114494 4.183481 29.857759 0.803093
2004-08-20 06:36:53 51°14.379 2°55.044 20.114494 4.183481 29.857759 0.803093
2004-08-20 06:36:58 51°14.39 2°55.022 20.107464 4.190652 29.917785 0.735674
2004-08-20 06:37:03 51°14.4 2°54.998 20.098333 4.204255 30.031045 0.735674
2004-08-20 06:37:07 51°14.407 2°54.978 20.094615 4.227243 30.216193 0.769383
2004-08-20 06:37:13 51°14.416 2°54.947 20.096232 4.247173 30.381673 0.904221
2004-08-20 06:37:18 51°14.423 2°54.92 20.103747 4.26025 30.490081 0.668255
2004-08-20 06:37:23 51°14.428 2°54.892 20.103747 4.26025 30.490081 0.668255
2004-08-20 06:37:27 51°14.432 2°54.869 20.099949 4.278915 30.643226 0.803093
2004-08-20 06:37:33 51°14.436 2°54.835 20.09704 4.287985 30.720301 0.735674
2004-08-20 06:37:38 51°14.437 2°54.806 20.091746 4.295578 30.786128 0.701965
2004-08-20 06:37:43 51°14.438 2°54.777 20.08633 4.293891 30.772633 0.769383
2004-08-20 06:37:47 51°14.439 2°54.754 20.077358 4.308444 30.887514 0.870512
2004-08-20 06:37:53 51°14.44 2°54.718 20.077358 4.308444 30.887514 0.870512
2004-08-20 06:37:57 51°14.441 2°54.695 20.058924 4.31435 30.936832 0.803093
2004-08-20 06:38:03 51°14.442 2°54.66 20.045782 4.332806 31.085634 0.769383
2004-08-20 06:38:07 51°14.442 2°54.637 20.035429 4.343458 31.174597 0.701965
2004-08-20 06:38:12 51°14.442 2°54.611 20.021394 4.367504 31.369995 0.803093
2004-08-20 06:38:15 51°14.441 2°54.596 20.010187 4.386488 31.526007 0.735674
2004-08-20 06:38:23 51°14.439 2°54.559 20.010187 4.386488 31.526007 0.735674
2004-08-20 06:38:27 51°14.438 2°54.543 20.002419 4.41486 31.763423 0.803093
2004-08-20 06:38:31 51°14.436 2°54.528 19.994933 4.430576 31.899364 0.769383
2004-08-20 06:38:37 51°14.434 2°54.507 19.984532 4.425724 31.869883 0.769383
2004-08-20 06:38:43 51°14.433 2°54.489 19.982103 4.479411 32.31099 0.836802
2004-08-20 06:38:48 51°14.431 2°54.474 19.98012 4.496288 32.457444 0.836802
2004-08-20 06:38:52 51°14.43 2°54.463 19.98012 4.496288 32.457444 0.836802
2004-08-20 06:38:58 51°14.429 2°54.447 19.97753 4.498926 32.485238 0.769383
2004-08-20 06:39:03 51°14.429 2°54.434 19.979594 4.488272 32.406785 0.769383
2004-08-20 06:39:07 51°14.429 2°54.425 19.981941 4.534896 32.789611 0.803093
2004-08-20 06:39:12 51°14.429 2°54.414 19.976639 4.543229 32.862529 0.769383
2004-08-20 06:39:18 51°14.429 2°54.402 19.978218 4.53806 32.823436 0.769383
2004-08-20 06:39:23 51°14.429 2°54.392 19.978218 4.53806 32.823436 0.769383
2004-08-20 06:39:28 51°14.429 2°54.382 19.976801 4.548292 32.906265 0.803093
2004-08-20 06:39:33 51°14.43 2°54.372 19.975708 4.551562 32.932193 0.735674
2004-08-20 06:39:38 51°14.43 2°54.364 19.978137 4.535951 32.808553 0.735674
2004-08-20 06:39:43 51°14.431 2°54.356 19.976801 4.558841 32.995548 0.769383
2004-08-20 06:39:47 51°14.431 2°54.349 19.975101 4.558103 32.989015 0.769383
2004-08-20 06:39:59 51°14.433 2°54.33 19.971862 4.565276 33.047128 0.701965
2004-08-20 06:40:03 51°14.433 2°54.324 19.973886 4.574981 33.126884 0.803093
2004-08-20 06:40:09 51°14.433 2°54.315 19.977246 4.57688 33.142275 0.769383
2004-08-20 06:40:14 51°14.434 2°54.308 19.970324 4.585846 33.215528 0.769383
2004-08-20 06:40:19 51°14.434 2°54.302 19.966843 4.590382 33.254538 0.701965
2004-08-20 06:40:24 51°14.435 2°54.295 19.964414 4.577513 33.151283 0.735674
2004-08-20 06:40:29 51°14.435 2°54.289 19.964414 4.577513 33.151283 0.735674
2004-08-20 06:40:39 51°14.435 2°54.277 19.958421 4.593969 33.284744 0.769383
2004-08-20 06:40:43 51°14.435 2°54.272 19.956964 4.594391 33.289836 0.769383
2004-08-20 06:40:55 51°14.436 2°54.26 19.954008 4.605046 33.379642 0.769383
2004-08-20 06:41:03 51°14.436 2°54.252 19.951943 4.603991 33.374426 0.904221
2004-08-20 06:41:07 51°14.436 2°54.249 19.9468 4.606101 33.393228 0.769383
2004-08-20 06:41:12 51°14.435 2°54.245 19.943844 4.605679 33.390919 0.769383
2004-08-20 06:41:15 51°14.436 2°54.243 19.943844 4.605679 33.390919 0.769383
2004-08-20 06:41:23 51°14.436 2°54.237 19.936311 4.601354 33.360269 0.769383
2004-08-20 06:41:27 51°14.436 2°54.234 19.933152 4.602303 33.37021 0.735674
2004-08-20 06:41:37 51°14.436 2°54.228 19.931167 4.604835 33.393001 0.803093
2004-08-20 06:41:42 51°14.436 2°54.225 19.928291 4.603358 33.383241 0.803093
2004-08-20 06:41:47 51°14.436 2°54.222 19.928291 4.603358 33.383241 0.803093
2004-08-20 06:41:52 51°14.436 2°54.219 19.924565 4.607156 33.415761 0.836802
2004-08-20 06:41:56 51°14.437 2°54.217 19.92501 4.596607 33.332881 0.836802
2004-08-20 06:42:03 51°14.437 2°54.213 19.922418 4.608317 33.431338 0.769383
2004-08-20 06:42:07 51°14.437 2°54.211 19.922296 4.596712 33.339315 0.735674
2004-08-20 06:42:10 51°14.437 2°54.211 19.921527 4.615385 33.492691 0.836802
2004-08-20 06:42:15 51°14.438 2°54.208 19.921527 4.615385 33.492691 0.836802
2004-08-20 06:42:22 51°14.438 2°54.206 19.918853 4.611903 33.466639 0.769383
2004-08-20 06:42:27 51°14.438 2°54.204 19.916989 4.607156 33.429742 0.803093
2004-08-20 06:42:32 51°14.439 2°54.202 19.914234 4.618761 33.525178 0.803093
2004-08-20 06:42:35 51°14.439 2°54.201 19.912047 4.619921 33.535173 0.870512
2004-08-20 06:42:39 51°14.439 2°54.199 19.911966 4.626884 33.59235 0.803093
2004-08-20 06:42:47 51°14.44 2°54.196 19.911966 4.626884 33.59235 0.803093
2004-08-20 06:42:52 51°14.44 2°54.194 19.911884 4.624774 33.57744 0.803093
2004-08-20 06:42:54 51°14.44 2°54.193 19.908805 4.625723 33.585724 0.803093
2004-08-20 06:43:05 51°14.441 2°54.189 19.908724 4.630681 33.628866 0.735674
2004-08-20 06:43:07 51°14.441 2°54.189 19.907347 4.629943 33.623422 0.701965
2004-08-20 06:43:12 51°14.442 2°54.188 19.907833 4.62931 33.619962 0.701965
2004-08-20 06:43:23 51°14.443 2°54.185 19.907954 4.625723 33.59191 0.803093
2004-08-20 06:43:28 51°14.443 2°54.183 19.906982 4.634057 33.660275 0.735674
2004-08-20 06:43:31 51°14.443 2°54.182 19.907144 4.626778 33.601617 0.803093
2004-08-20 06:43:38 51°14.444 2°54.179 19.907103 4.62815 33.614462 0.701965
2004-08-20 06:43:43 51°14.445 2°54.177 19.906455 4.633741 33.659955 0.701965
2004-08-20 06:43:47 51°14.445 2°54.174 19.907792 4.639965 33.710045 0.701965
2004-08-20 06:43:59 51°14.446 2°54.159 19.903214 4.638488 33.699717 0.634546
2004-08-20 06:44:04 51°14.446 2°54.149 19.900823 4.639649 33.710292 0.735674
2004-08-20 06:44:11 51°14.443 2°54.132 19.900823 4.639649 33.710292 0.735674
2004-08-20 06:44:16 51°14.442 2°54.119 19.895231 4.63564 33.677664 0.701965
2004-08-20 06:44:19 51°14.44 2°54.11 19.895231 4.64102 33.721455 0.769383
2004-08-20 06:44:23 51°14.437 2°54.097 19.892718 4.622981 33.576347 0.668255
2004-08-20 06:44:32 51°14.43 2°54.066 19.886963 4.624668 33.591204 0.803093
2004-08-20 06:44:35 51°14.428 2°54.055 19.883477 4.633214 33.661864 0.769383
2004-08-20 06:44:39 51°14.423 2°54.04 19.883477 4.633214 33.661864 0.769383
2004-08-20 06:44:43 51°14.419 2°54.024 19.876587 4.619394 33.552228 0.701965
2004-08-20 06:44:51 51°14.409 2°53.992 19.8716 4.625618 33.604558 0.803093
2004-08-20 06:44:55 51°14.403 2°53.974 19.862195 4.622875 33.585052 0.803093
2004-08-20 06:44:59 51°14.397 2°53.956 19.854126 4.614541 33.520615 0.769383
2004-08-20 06:45:05 51°14.387 2°53.928 19.848773 4.60895 33.478498 0.836802
2004-08-20 06:45:09 51°14.38 2°53.909 19.848773 4.60895 33.478498 0.836802
2004-08-20 06:45:17 51°14.366 2°53.87 19.846989 4.605153 33.450409 0.803093
2004-08-20 06:45:21 51°14.359 2°53.851 19.838067 4.596608 33.385948 0.870512
2004-08-20 06:45:27 51°14.349 2°53.821 19.831253 4.591228 33.347227 0.836802
2004-08-20 06:45:32 51°14.34 2°53.795 19.821517 4.591756 33.357668 0.803093
2004-08-20 06:45:36 51°14.333 2°53.775 19.81243 4.583105 33.291222 0.93793
2004-08-20 06:45:42 51°14.322 2°53.744 19.81243 4.583105 33.291222 0.93793
2004-08-20 06:45:47 51°14.313 2°53.718 19.811659 4.584055 33.301736 0.836802
2004-08-20 06:45:52 51°14.304 2°53.693 19.809468 4.583317 33.301315 0.836802
2004-08-20 06:45:56 51°14.297 2°53.672 19.808048 4.597347 33.421086 0.769383
2004-08-20 06:46:01 51°14.288 2°53.646 19.804842 4.598824 33.438159 0.701965
2004-08-20 06:46:07 51°14.277 2°53.615 19.803219 4.619817 33.615363 0.735674
2004-08-20 06:46:12 51°14.268 2°53.589 19.803219 4.619817 33.615363 0.735674
2004-08-20 06:46:16 51°14.261 2°53.569 19.804071 4.632582 33.723952 0.701965
2004-08-20 06:46:22 51°14.25 2°53.538 19.801758 4.638806 33.776419 0.735674
2004-08-20 06:46:28 51°14.239 2°53.507 19.799932 4.646929 33.844967 0.668255
2004-08-20 06:46:32 51°14.231 2°53.487 19.800338 4.645558 33.836049 0.769383
2004-08-20 06:46:37 51°14.222 2°53.461 19.799567 4.651571 33.886834 0.668255
2004-08-20 06:46:42 51°14.212 2°53.436 19.799567 4.651571 33.886834 0.668255
2004-08-20 06:46:47 51°14.202 2°53.41 19.799445 4.664336 33.991631 0.735674
2004-08-20 06:46:52 51°14.193 2°53.384 19.797375 4.666235 34.008854 0.634546
2004-08-20 06:46:55 51°14.187 2°53.369 19.797619 4.669611 34.037002 0.634546
2004-08-20 06:47:02 51°14.174 2°53.333 19.795265 4.67151 34.053087 0.600836
2004-08-20 06:47:04 51°14.17 2°53.323 19.79632 4.668029 34.025218 0.567127
2004-08-20 06:47:12 51°14.155 2°53.282 19.79632 4.668029 34.025218 0.567127
2004-08-20 06:47:14 51°14.151 2°53.272 19.795346 4.670561 34.046474 0.634546
2004-08-20 06:47:22 51°14.136 2°53.231 19.798349 4.674781 34.081526 0.533418
2004-08-20 06:47:24 51°14.133 2°53.221 19.798065 4.657901 33.945353 0.600836
2004-08-20 06:47:32 51°14.118 2°53.18 19.7977 4.660961 33.971481 0.634546
2004-08-20 06:47:36 51°14.11 2°53.159 19.799973 4.66497 34.003084 0.600836
2004-08-20 06:47:40 51°14.103 2°53.139 19.799973 4.66497 34.003084 0.600836
2004-08-20 06:47:47 51°14.09 2°53.103 19.796483 4.676363 34.096176 0.634546
2004-08-20 06:47:51 51°14.082 2°53.083 19.796077 4.677102 34.101638 0.499708
2004-08-20 06:47:56 51°14.073 2°53.058 19.795022 4.677207 34.1025 0.533418
2004-08-20 06:48:02 51°14.061 2°53.027 19.794859 4.670139 34.044743 0.533418
2004-08-20 06:48:04 51°14.058 2°53.017 19.795022 4.679528 34.120895 0.533418
2004-08-20 06:48:13 51°14.04 2°52.971 19.793601 4.680056 34.126353 0.533418
2004-08-20 06:48:17 51°14.033 2°52.951 19.794251 4.672354 34.065134 0.499708
2004-08-20 06:48:24 51°14.02 2°52.915 19.794251 4.672354 34.065134 0.499708
2004-08-20 06:48:28 51°14.012 2°52.895 19.791085 4.671405 34.057948 0.499708
2004-08-20 06:48:32 51°14.005 2°52.875 19.792465 4.671194 34.056796 0.499708
2004-08-20 06:48:39 51°13.992 2°52.839 19.79145 4.679845 34.126349 0.567127
2004-08-20 06:48:44 51°13.983 2°52.814 19.793723 4.666341 34.017146 0.499708
2004-08-20 06:48:48 51°13.975 2°52.793 19.790192 4.680583 34.133533 0.567127
2004-08-20 06:48:52 51°13.968 2°52.772 19.790192 4.680583 34.133533 0.567127
2004-08-20 06:48:59 51°13.955 2°52.736 19.785322 4.67879 34.119446 0.499708
2004-08-20 06:49:04 51°13.946 2°52.71 19.785768 4.678368 34.117144 0.499708
2004-08-20 06:49:08 51°13.938 2°52.69 19.783536 4.675097 34.090413 0.465999
2004-08-20 06:49:12 51°13.931 2°52.669 19.784429 4.671194 34.058514 0.432289
2004-08-20 06:49:19 51°13.918 2°52.633 19.78175 4.667818 34.032644 0.499708
2004-08-20 06:49:24 51°13.909 2°52.608 19.78175 4.667818 34.032644 0.499708
2004-08-20 06:49:28 51°13.901 2°52.587 19.780329 4.67879 34.123461 0.432289
2004-08-20 06:49:32 51°13.894 2°52.566 19.783982 4.680267 34.137257 0.499708
2004-08-20 06:49:40 51°13.879 2°52.525 19.780613 4.675731 34.100745 0.465999
2004-08-20 06:49:47 51°13.866 2°52.489 19.778665 4.669295 34.049292 0.465999
2004-08-20 06:49:52 51°13.857 2°52.464 19.778421 4.6809 34.145302 0.465999
2004-08-20 06:49:56 51°13.849 2°52.443 19.777 4.677102 34.114824 0.432289
2004-08-20 06:50:00 51°13.842 2°52.422 19.776919 4.680689 34.143003 0.39858
2004-08-20 06:50:07 51°13.828 2°52.387 19.776148 4.680584 34.144437 0.432289
2004-08-20 06:50:12 51°13.819 2°52.361 19.776148 4.680584 34.144437 0.432289
2004-08-20 06:50:15 51°13.813 2°52.345 19.781466 4.677419 34.12028 0.432289
2004-08-20 06:50:20 51°13.804 2°52.32 19.788812 4.681955 34.1568 0.432289
2004-08-20 06:50:25 51°13.794 2°52.293 19.791166 4.671933 34.07543 0.499708
2004-08-20 06:50:32 51°13.781 2°52.257 19.789096 4.66191 33.99409 0.432289
2004-08-20 06:50:36 51°13.774 2°52.236 19.787838 4.681111 34.150472 0.432289
2004-08-20 06:50:40 51°13.766 2°52.216 19.787838 4.681111 34.150472 0.432289
2004-08-20 06:50:47 51°13.754 2°52.179 19.786336 4.680056 34.139549 0.432289
2004-08-20 06:50:52 51°13.745 2°52.154 19.784429 4.680689 34.141855 0.39858
2004-08-20 06:50:56 51°13.737 2°52.133 19.781628 4.683854 34.164861 0.432289
2004-08-20 06:51:00 51°13.73 2°52.113 19.776473 4.678368 34.120012 0.432289
2004-08-20 06:51:04 51°13.723 2°52.092 19.774646 4.687019 34.19074 0.432289
2004-08-20 06:51:12 51°13.708 2°52.051 19.774646 4.687019 34.19074 0.432289
2004-08-20 06:51:16 51°13.7 2°52.03 19.772373 4.687441 34.195341 0.39858
2004-08-20 06:51:21 51°13.691 2°52.004 19.769653 4.666763 34.026884 0.364871
2004-08-20 06:51:26 51°13.681 2°51.978 19.765187 4.666869 34.030606 0.39858
2004-08-20 06:51:35 51°13.664 2°51.931 19.761167 4.686703 34.197926 0.39858
2004-08-20 06:51:43 51°13.649 2°51.89 19.758975 4.685648 34.191596 0.39858
2004-08-20 06:51:48 51°13.64 2°51.864 19.758975 4.685648 34.191596 0.39858
2004-08-20 06:51:52 51°13.632 2°51.843 19.758528 4.677524 34.127455 0.364871
2004-08-20 06:52:01 51°13.616 2°51.796 19.757757 4.68512 34.193608 0.364871
2004-08-20 06:52:06 51°13.606 2°51.769 19.757838 4.684382 34.190442 0.432289
2004-08-20 06:52:12 51°13.595 2°51.738 19.757838 4.684382 34.190442 0.432289
2004-08-20 06:52:17 51°13.585 2°51.712 19.757432 4.684065 34.189002 0.432289
2004-08-20 06:52:22 51°13.576 2°51.686 19.758812 4.682694 34.178932 0.39858
2004-08-20 06:52:25 51°13.57 2°51.67 19.758975 4.682905 34.181808 0.39858
2004-08-20 06:52:32 51°13.557 2°51.634 19.761451 4.68301 34.182096 0.432289
2004-08-20 06:52:36 51°13.55 2°51.613 19.763035 4.682799 34.180945 0.39858
2004-08-20 06:52:40 51°13.543 2°51.592 19.763035 4.682799 34.180945 0.39858
2004-08-20 06:52:44 51°13.536 2°51.571 19.765552 4.683116 34.18411 0.432289
2004-08-20 06:52:49 51°13.526 2°51.545 19.76677 4.681639 34.170875 0.39858
2004-08-20 06:52:56 51°13.513 2°51.509 19.767988 4.682272 34.176054 0.432289
2004-08-20 06:53:05 51°13.497 2°51.462 19.769287 4.682377 34.175192 0.432289
2004-08-20 06:53:11 51°13.485 2°51.431 19.770018 4.682588 34.176343 0.432289
2004-08-20 06:53:16 51°13.476 2°51.405 19.769409 4.682694 34.174332 0.432289
2004-08-20 06:53:20 51°13.468 2°51.384 19.76608 4.682588 34.172894 0.39858
2004-08-20 06:53:25 51°13.459 2°51.357 19.764212 4.682799 34.174045 0.39858
2004-08-20 06:53:30 51°13.45 2°51.331 19.765106 4.684065 34.183252 0.432289
2004-08-20 06:53:36 51°13.439 2°51.3 19.765106 4.684065 34.183252 0.432289
2004-08-20 06:53:40 51°13.431 2°51.279 19.765958 4.683749 34.179513 0.39858
2004-08-20 06:53:46 51°13.42 2°51.247 19.768232 4.681744 34.164841 0.432289
2004-08-20 06:53:51 51°13.411 2°51.221 19.770627 4.68301 34.175196 0.432289
2004-08-20 06:53:56 51°13.402 2°51.195 19.768597 4.683116 34.176634 0.465999
2004-08-20 06:54:00 51°13.395 2°51.174 19.7688 4.682694 34.174907 0.465999
2004-08-20 06:54:06 51°13.383 2°51.143 19.7688 4.682694 34.174907 0.465999
2004-08-20 06:54:10 51°13.376 2°51.122 19.768191 4.682799 34.175195 0.465999
2004-08-20 06:54:15 51°13.367 2°51.095 19.765715 4.682061 34.168004 0.465999
2004-08-20 06:54:20 51°13.358 2°51.069 19.76405 4.682799 34.172896 0.432289
2004-08-20 06:54:25 51°13.349 2°51.042 19.760112 4.68396 34.181814 0.499708
2004-08-20 06:54:30 51°13.339 2°51.016 19.758812 4.680795 34.1565 0.465999
2004-08-20 06:54:36 51°13.328 2°50.985 19.758812 4.680795 34.1565 0.465999
2004-08-20 06:54:41 51°13.319 2°50.959 19.761979 4.681533 34.16254 0.432289
2004-08-20 06:54:46 51°13.31 2°50.933 19.75934 4.682166 34.169442 0.499708
2004-08-20 06:54:48 51°13.306 2°50.922 19.757513 4.681217 34.16225 0.465999
2004-08-20 06:54:56 51°13.292 2°50.88 19.759503 4.680478 34.159082 0.533418
2004-08-20 06:55:00 51°13.284 2°50.859 19.759584 4.682272 34.174904 0.499708
2004-08-20 06:55:05 51°13.275 2°50.833 19.759584 4.682272 34.174904 0.499708
2004-08-20 06:55:12 51°13.263 2°50.797 19.756254 4.681322 34.167136 0.533418
2004-08-20 06:55:16 51°13.255 2°50.776 19.752965 4.682483 34.17778 0.533418
2004-08-20 06:55:26 51°13.237 2°50.724 19.754264 4.681533 34.169437 0.499708
2004-08-20 06:55:29 51°13.231 2°50.708 19.75463 4.681533 34.170012 0.499708
2004-08-20 06:55:35 51°13.221 2°50.677 19.75463 4.681533 34.170012 0.499708
2004-08-20 06:55:40 51°13.212 2°50.651 19.754508 4.681428 34.170874 0.499708
2004-08-20 06:55:44 51°13.204 2°50.63 19.756985 4.682588 34.181519 0.600836
2004-08-20 06:55:49 51°13.195 2°50.604 19.758731 4.682272 34.178929 0.499708
2004-08-20 06:55:58 51°13.179 2°50.556 19.760315 4.682166 34.179216 0.499708
2004-08-20 06:56:04 51°13.168 2°50.525 19.76206 4.681322 34.171735 0.465999
2004-08-20 06:56:09 51°13.159 2°50.498 19.7647 4.682377 34.179793 0.533418
2004-08-20 06:56:13 51°13.151 2°50.478 19.765471 4.681955 34.17634 0.499708
2004-08-20 06:56:19 51°13.14 2°50.446 19.767826 4.68301 34.183246 0.499708
2004-08-20 06:56:24 51°13.131 2°50.42 19.767826 4.68301 34.183246 0.499708
2004-08-20 06:56:29 51°13.121 2°50.394 19.766242 4.681639 34.170875 0.499708
2004-08-20 06:56:34 51°13.112 2°50.367 19.767217 4.68301 34.180946 0.499708
2004-08-20 06:56:36 51°13.108 2°50.357 19.763441 4.683221 34.180372 0.499708
2004-08-20 06:56:44 51°13.093 2°50.314 19.763685 4.684171 34.18699 0.499708
2004-08-20 06:56:49 51°13.084 2°50.288 19.763279 4.684382 34.187566 0.465999
2004-08-20 06:56:52 51°13.078 2°50.272 19.763279 4.684382 34.187566 0.465999
2004-08-20 06:56:58 51°13.067 2°50.241 19.76206 4.684065 34.184402 0.465999
2004-08-20 06:57:01 51°13.062 2°50.225 19.759787 4.68396 34.183539 0.499708
2004-08-20 06:57:08 51°13.049 2°50.187 19.759665 4.685437 34.197347 0.499708
2004-08-20 06:57:12 51°13.042 2°50.166 19.758528 4.684593 34.190442 0.465999
2004-08-20 06:57:19 51°13.029 2°50.129 19.756904 4.685753 34.201087 0.499708
2004-08-20 06:57:24 51°13.02 2°50.102 19.756904 4.685753 34.201087 0.499708
2004-08-20 06:57:28 51°13.013 2°50.081 19.756376 4.686281 34.205979 0.432289
2004-08-20 06:57:34 51°13.002 2°50.049 19.756376 4.686386 34.207993 0.465999
2004-08-20 06:57:39 51°12.993 2°50.022 19.756011 4.685753 34.203965 0.465999
2004-08-20 06:57:44 51°12.984 2°49.996 19.758041 4.686492 34.211159 0.39858
2004-08-20 06:57:48 51°12.976 2°49.975 19.755848 4.686808 34.214324 0.465999
2004-08-20 06:57:52 51°12.969 2°49.954 19.755848 4.686808 34.214324 0.465999
2004-08-20 06:57:56 51°12.962 2°49.933 19.755767 4.686492 34.21231 0.39858
2004-08-20 06:58:04 51°12.947 2°49.891 19.754264 4.686492 34.212886 0.39858
2004-08-20 06:58:08 51°12.939 2°49.87 19.752153 4.687019 34.217202 0.432289
2004-08-20 06:58:13 51°12.931 2°49.843 19.751016 4.686703 34.213461 0.432289
2004-08-20 06:58:18 51°12.921 2°49.816 19.750041 4.687547 34.220368 0.465999
2004-08-20 06:58:24 51°12.911 2°49.785 19.750041 4.687547 34.220368 0.465999
2004-08-20 06:58:28 51°12.904 2°49.763 19.746021 4.687019 34.217202 0.39858
2004-08-20 06:58:33 51°12.894 2°49.737 19.747239 4.688285 34.228139 0.364871
2004-08-20 06:58:39 51°12.884 2°49.705 19.744884 4.688602 34.232457 0.39858
2004-08-20 06:58:44 51°12.875 2°49.678 19.738589 4.688813 34.23476 0.364871
2004-08-20 06:58:48 51°12.868 2°49.657 19.734852 4.688602 34.234762 0.364871
2004-08-20 06:58:52 51°12.86 2°49.636 19.734852 4.688602 34.234762 0.364871
2004-08-20 06:58:56 51°12.853 2°49.614 19.73213 4.688602 34.235914 0.331161
2004-08-20 06:59:04 51°12.838 2°49.572 19.728556 4.688602 34.23649 0.331161
2004-08-20 06:59:09 51°12.829 2°49.545 19.726768 4.688075 34.235054 0.331161
2004-08-20 06:59:13 51°12.822 2°49.524 19.720309 4.686598 34.225843 0.297452
2004-08-20 06:59:19 51°12.811 2°49.493 19.71775 4.688813 34.245711 0.331161
2004-08-20 06:59:24 51°12.802 2°49.467 19.71775 4.688813 34.245711 0.331161
2004-08-20 06:59:28 51°12.794 2°49.446 19.715515 4.688813 34.24917 0.331161
2004-08-20 06:59:32 51°12.787 2°49.425 19.711615 4.689657 34.258389 0.331161
2004-08-20 06:59:36 51°12.78 2°49.404 19.707592 4.687758 34.245721 0.331161
2004-08-20 06:59:44 51°12.765 2°49.362 19.706739 4.690079 34.267615 0.297452
2004-08-20 06:59:49 51°12.756 2°49.336 19.704544 4.688919 34.261572 0.297452
2004-08-20 06:59:53 51°12.749 2°49.314 19.704544 4.688919 34.261572 0.297452
2004-08-20 06:59:56 51°12.744 2°49.298 19.706536 4.69008 34.27281 0.263742
2004-08-20 07:00:04 51°12.729 2°49.256 19.700359 4.688919 34.266189 0.297452
2004-08-20 07:00:09 51°12.72 2°49.229 19.701294 4.689658 34.273972 0.263742
2004-08-20 07:00:13 51°12.713 2°49.208 19.701537 4.687442 34.25813 0.263742
2004-08-20 07:00:19 51°12.702 2°49.176 19.699831 4.690185 34.281759 0.230033
2004-08-20 07:00:24 51°12.693 2°49.15 19.699831 4.690185 34.281759 0.230033
2004-08-20 07:00:29 51°12.683 2°49.124 19.696498 4.689763 34.278879 0.263742
2004-08-20 07:00:34 51°12.674 2°49.098 19.697067 4.68913 34.275425 0.230033
2004-08-20 07:00:38 51°12.667 2°49.077 19.696295 4.690185 34.285225 0.196324
2004-08-20 07:00:43 51°12.658 2°49.05 19.696254 4.689447 34.279751 0.230033
2004-08-20 07:00:48 51°12.649 2°49.023 19.69658 4.689869 34.284365 0.196324
2004-08-20 07:00:54 51°12.638 2°48.992 19.69658 4.689869 34.284365 0.196324
2004-08-20 07:00:59 51°12.629 2°48.965 19.696092 4.690502 34.291286 0.263742
2004-08-20 07:01:04 51°12.621 2°48.938 19.693531 4.690291 34.290135 0.230033
2004-08-20 07:01:09 51°12.612 2°48.912 19.689061 4.690502 34.292442 0.230033
2004-08-20 07:01:13 51°12.605 2°48.89 19.684468 4.690185 34.289848 0.196324
2004-08-20 07:01:19 51°12.594 2°48.858 19.67894 4.688708 34.277743 0.263742
2004-08-20 07:01:24 51°12.585 2°48.832 19.67894 4.688708 34.277743 0.263742
2004-08-20 07:01:28 51°12.578 2°48.811 19.676053 4.690502 34.294176 0.196324
2004-08-20 07:01:34 51°12.567 2°48.78 19.671825 4.690607 34.295619 0.196324
2004-08-20 07:01:39 51°12.558 2°48.753 19.669183 4.690291 34.295337 0.263742
2004-08-20 07:01:44 51°12.549 2°48.726 19.668695 4.689236 34.288424 0.196324
2004-08-20 07:01:48 51°12.542 2°48.705 19.668573 4.690186 34.300255 0.263742
2004-08-20 07:01:53 51°12.533 2°48.679 19.668573 4.690186 34.300255 0.263742
2004-08-20 07:01:57 51°12.525 2°48.658 19.667963 4.689236 34.296519 0.196324
2004-08-20 07:02:04 51°12.513 2°48.621 19.66841 4.688603 34.29422 0.196324
2004-08-20 07:02:08 51°12.505 2°48.6 19.666418 4.689447 34.303455 0.230033
2004-08-20 07:02:12 51°12.498 2°48.579 19.663938 4.688392 34.296539 0.263742
2004-08-20 07:02:16 51°12.491 2°48.558 19.665605 4.688076 34.294522 0.162614
2004-08-20 07:02:26 51°12.473 2°48.505 19.662271 4.688392 34.297696 0.196324
2004-08-20 07:02:32 51°12.462 2°48.473 19.664426 4.688287 34.297988 0.196324
2004-08-20 07:02:36 51°12.455 2°48.452 19.663572 4.688498 34.299718 0.196324
2004-08-20 07:02:42 51°12.444 2°48.42 19.663572 4.688498 34.299718 0.196324
2004-08-20 07:02:44 51°12.441 2°48.41 19.663328 4.687337 34.291358 0.162614
2004-08-20 07:02:53 51°12.425 2°48.362 19.664263 4.687865 34.29742 0.162614
2004-08-20 07:02:57 51°12.418 2°48.341 19.661742 4.687021 34.291076 0.162614
2004-08-20 07:03:04 51°12.405 2°48.304 19.661377 4.687654 34.295689 0.263742
2004-08-20 07:03:09 51°12.396 2°48.278 19.660157 4.68797 34.298864 0.128905
2004-08-20 07:03:13 51°12.389 2°48.257 19.663125 4.687865 34.29742 0.196324
2004-08-20 07:03:19 51°12.378 2°48.225 19.661905 4.687337 34.294251 0.196324
2004-08-20 07:03:24 51°12.369 2°48.199 19.661905 4.687337 34.294251 0.196324
2004-08-20 07:03:29 51°12.359 2°48.173 19.661742 4.687759 34.29829 0.162614
2004-08-20 07:03:34 51°12.35 2°48.146 19.6628 4.687021 34.29339 0.162614
2004-08-20 07:03:38 51°12.343 2°48.125 19.660482 4.686599 34.289929 0.162614
2004-08-20 07:03:44 51°12.332 2°48.093 19.6628 4.686177 34.285311 0.128905
2004-08-20 07:03:48 51°12.325 2°48.072 19.6628 4.68681 34.290503 0.196324
2004-08-20 07:03:54 51°12.314 2°48.04 19.6628 4.68681 34.290503 0.196324
2004-08-20 07:03:59 51°12.306 2°48.013 19.658815 4.686071 34.284446 0.162614
2004-08-20 07:04:04 51°12.297 2°47.986 19.660157 4.687443 34.295694 0.230033
2004-08-20 07:04:09 51°12.288 2°47.959 19.659018 4.687337 34.295408 0.230033
2004-08-20 07:04:14 51°12.279 2°47.932 19.661742 4.687654 34.298004 0.196324
2004-08-20 07:04:18 51°12.272 2°47.911 19.661621 4.687126 34.293098 0.196324
2004-08-20 07:04:24 51°12.261 2°47.879 19.661621 4.687126 34.293098 0.196324
2004-08-20 07:04:28 51°12.254 2°47.857 19.664263 4.686915 34.293682 0.196324
2004-08-20 07:04:34 51°12.244 2°47.825 19.661986 4.688076 34.302623 0.162614
2004-08-20 07:04:39 51°12.235 2°47.799 19.663044 4.687548 34.298874 0.196324
2004-08-20 07:04:44 51°12.226 2°47.772 19.662149 4.687126 34.294256 0.196324
2004-08-20 07:04:49 51°12.217 2°47.746 19.662515 4.687021 34.292812 0.196324
2004-08-20 07:04:53 51°12.21 2°47.724 19.662515 4.687021 34.292812 0.196324
2004-08-20 07:04:59 51°12.199 2°47.693 19.664548 4.685966 34.284159 0.230033
2004-08-20 07:05:02 51°12.194 2°47.677 19.666459 4.687337 34.294829 0.128905
2004-08-20 07:05:08 51°12.183 2°47.645 19.666296 4.687337 34.295408 0.128905
2004-08-20 07:05:12 51°12.176 2°47.624 19.666987 4.688392 34.302904 0.230033
2004-08-20 07:05:16 51°12.169 2°47.602 19.669346 4.687443 34.293959 0.196324
2004-08-20 07:05:26 51°12.152 2°47.548 19.667353 4.687548 34.295403 0.196324
2004-08-20 07:05:32 51°12.141 2°47.516 19.668614 4.688287 34.300881 0.230033
2004-08-20 07:05:36 51°12.134 2°47.495 19.668939 4.688498 34.301454 0.196324
2004-08-20 07:05:42 51°12.123 2°47.463 19.668939 4.688498 34.301454 0.196324
2004-08-20 07:05:45 51°12.118 2°47.447 19.667353 4.687759 34.294819 0.230033
2004-08-20 07:05:52 51°12.105 2°47.41 19.66841 4.68797 34.296549 0.128905
2004-08-20 07:05:57 51°12.097 2°47.384 19.669996 4.688603 34.301162 0.196324
2004-08-20 07:06:05 51°12.083 2°47.341 19.670077 4.687337 34.291358 0.196324
2004-08-20 07:06:11 51°12.072 2°47.309 19.669793 4.687337 34.290779 0.196324
2004-08-20 07:06:16 51°12.063 2°47.282 19.67272 4.688392 34.299432 0.196324
2004-08-20 07:06:21 51°12.054 2°47.255 19.671663 4.688498 34.299718 0.162614
2004-08-20 07:06:25 51°12.047 2°47.234 19.675403 4.688181 34.295966 0.230033
2004-08-20 07:06:31 51°12.037 2°47.202 19.673614 4.687548 34.291353 0.230033
2004-08-20 07:06:33 51°12.033 2°47.191 19.673614 4.687548 34.291353 0.230033
2004-08-20 07:06:40 51°12.021 2°47.153 19.673533 4.688287 34.296831 0.162614
2004-08-20 07:06:44 51°12.014 2°47.132 19.671825 4.687759 34.291348 0.230033
2004-08-20 07:06:50 51°12.003 2°47.099 19.673208 4.688076 34.293365 0.196324
2004-08-20 07:06:55 51°11.995 2°47.072 19.673858 4.688287 34.293938 0.230033
2004-08-20 07:07:00 51°11.986 2°47.045 19.676297 4.688603 34.295955 0.196324
2004-08-20 07:07:04 51°11.979 2°47.024 19.676297 4.688603 34.295955 0.196324
2004-08-20 07:07:11 51°11.967 2°46.986 19.676582 4.688709 34.297399 0.230033
2004-08-20 07:07:16 51°11.958 2°46.959 19.677639 4.68892 34.299708 0.230033
2004-08-20 07:07:21 51°11.949 2°46.932 19.677923 4.687232 34.285287 0.230033
2004-08-20 07:07:25 51°11.942 2°46.911 19.679996 4.688498 34.296247 0.263742
2004-08-20 07:07:31 51°11.931 2°46.878 19.67894 4.687865 34.289321 0.230033
2004-08-20 07:07:33 51°11.928 2°46.868 19.67894 4.687865 34.289321 0.230033
2004-08-20 07:07:40 51°11.915 2°46.83 19.678858 4.688709 34.295085 0.230033
2004-08-20 07:07:46 51°11.904 2°46.797 19.681501 4.688287 34.291047 0.297452
2004-08-20 07:07:50 51°11.897 2°46.776 19.680362 4.688603 34.292485 0.230033
2004-08-20 07:07:56 51°11.887 2°46.743 19.680362 4.689447 34.298249 0.297452
2004-08-20 07:08:05 51°11.871 2°46.694 19.680891 4.689025 34.295367 0.196324
2004-08-20 07:08:12 51°11.859 2°46.656 19.680891 4.689025 34.295367 0.196324
2004-08-20 07:08:16 51°11.852 2°46.635 19.681338 4.689658 34.2994 0.263742
2004-08-20 07:08:20 51°11.845 2°46.613 19.682395 4.688498 34.290463 0.230033
2004-08-20 07:08:27 51°11.833 2°46.575 19.682801 4.688498 34.289307 0.263742
2004-08-20 07:08:32 51°11.824 2°46.548 19.681744 4.689236 34.29594 0.230033
2004-08-20 07:08:36 51°11.817 2°46.526 19.683289 4.689553 34.299114 0.263742
2004-08-20 07:08:40 51°11.81 2°46.504 19.683289 4.689553 34.299114 0.263742
2004-08-20 07:08:47 51°11.798 2°46.466 19.686338 4.688392 34.288442 0.297452
2004-08-20 07:08:52 51°11.789 2°46.44 19.68589 4.689975 34.300839 0.263742
2004-08-20 07:08:56 51°11.782 2°46.418 19.685972 4.684383 34.254998 0.297452
2004-08-20 07:09:00 51°11.775 2°46.396 19.687882 4.689447 34.296514 0.297452
2004-08-20 07:09:07 51°11.763 2°46.358 19.68841 4.688814 34.290745 0.297452
2004-08-20 07:09:12 51°11.754 2°46.331 19.68841 4.688814 34.290745 0.297452
2004-08-20 07:09:17 51°11.745 2°46.304 19.688858 4.689342 34.293335 0.263742
2004-08-20 07:09:22 51°11.736 2°46.277 19.691215 4.690608 34.303136 0.263742
2004-08-20 07:09:27 51°11.727 2°46.25 19.690077 4.689975 34.297369 0.297452
2004-08-20 07:09:32 51°11.719 2°46.223 19.691134 4.690608 34.303136 0.297452
2004-08-20 07:09:37 51°11.71 2°46.195 19.69219 4.690185 34.29852 0.297452
2004-08-20 07:09:42 51°11.701 2°46.168 19.69219 4.690185 34.29852 0.297452
2004-08-20 07:09:46 51°11.695 2°46.146 19.691946 4.689658 34.292461 0.297452
2004-08-20 07:09:52 51°11.684 2°46.114 19.694385 4.690924 34.302839 0.263742
2004-08-20 07:09:56 51°11.678 2°46.092 19.693613 4.689974 34.295056 0.364871
2004-08-20 07:10:00 51°11.671 2°46.07 19.691255 4.690396 34.29678 0.331161
2004-08-20 07:10:06 51°11.66 2°46.037 19.690808 4.689869 34.292456 0.331161
2004-08-20 07:10:12 51°11.649 2°46.005 19.690808 4.689869 34.292456 0.331161
2004-08-20 07:10:16 51°11.642 2°45.983 19.68967 4.689025 34.28496 0.364871
2004-08-20 07:10:20 51°11.635 2°45.962 19.689467 4.68913 34.285247 0.331161
2004-08-20 07:10:27 51°11.622 2°45.924 19.689914 4.690185 34.294473 0.39858
2004-08-20 07:10:32 51°11.614 2°45.897 19.689752 4.689025 34.28496 0.364871
2004-08-20 07:10:37 51°11.605 2°45.87 19.686988 4.689763 34.291592 0.364871
2004-08-20 07:10:42 51°11.596 2°45.843 19.686988 4.689763 34.291592 0.364871
2004-08-20 07:10:47 51°11.587 2°45.815 19.6865 4.689236 34.287846 0.364871
2004-08-20 07:10:52 51°11.578 2°45.788 19.684996 4.687864 34.276604 0.364871
2004-08-20 07:10:57 51°11.569 2°45.761 19.684671 4.688603 34.282657 0.364871
2004-08-20 07:11:05 51°11.556 2°45.717 19.68459 4.689236 34.289002 0.39858
2004-08-20 07:11:12 51°11.543 2°45.679 19.68459 4.689236 34.289002 0.39858
2004-08-20 07:11:16 51°11.536 2°45.658 19.684549 4.688814 34.287277 0.465999
2004-08-20 07:11:20 51°11.529 2°45.636 19.685606 4.688603 34.286125 0.465999
2004-08-20 07:11:26 51°11.518 2°45.604 19.686947 4.689447 34.293044 0.432289
2004-08-20 07:11:32 51°11.508 2°45.571 19.686216 4.689764 34.296795 0.465999
2004-08-20 07:11:37 51°11.499 2°45.544 19.686581 4.688709 34.288146 0.39858
2004-08-20 07:11:40 51°11.494 2°45.528 19.686581 4.688709 34.288146 0.39858
2004-08-20 07:11:45 51°11.485 2°45.501 19.684224 4.68892 34.289298 0.432289
2004-08-20 07:11:52 51°11.473 2°45.463 19.682639 4.686915 34.272865 0.432289
2004-08-20 07:11:57 51°11.464 2°45.436 19.681582 4.687231 34.274304 0.432289
2004-08-20 07:12:00 51°11.459 2°45.42 19.681419 4.690185 34.29852 0.432289
2004-08-20 07:12:04 51°11.452 2°45.398 19.682923 4.690185 34.297942 0.465999
2004-08-20 07:12:12 51°11.438 2°45.355 19.682923 4.690185 34.297942 0.465999
2004-08-20 07:12:17 51°11.429 2°45.328 19.684468 4.689553 34.294487 0.465999
2004-08-20 07:12:20 51°11.424 2°45.312 19.68272 4.688287 34.285265 0.465999
2004-08-20 07:12:24 51°11.417 2°45.29 19.681582 4.689764 34.29853 0.465999
2004-08-20 07:12:32 51°11.403 2°45.246 19.682029 4.688287 34.285843 0.499708
2004-08-20 07:12:36 51°11.397 2°45.224 19.683004 4.68892 34.29161 0.465999
2004-08-20 07:12:40 51°11.39 2°45.202 19.683004 4.68892 34.29161 0.465999
2004-08-20 07:12:44 51°11.383 2°45.18 19.68272 4.688181 34.284978 0.499708
2004-08-20 07:12:52 51°11.37 2°45.137 19.681948 4.688814 34.290167 0.533418
2004-08-20 07:12:56 51°11.363 2°45.115 19.682557 4.688603 34.289594 0.499708
2004-08-20 07:13:00 51°11.356 2°45.093 19.681785 4.689236 34.293627 0.533418
2004-08-20 07:13:07 51°11.344 2°45.054 19.68333 4.68797 34.283826 0.600836
2004-08-20 07:13:12 51°11.335 2°45.027 19.68333 4.68797 34.283826 0.600836
2004-08-20 07:13:17 51°11.327 2°45 19.679549 4.688181 34.284978 0.634546
2004-08-20 07:13:22 51°11.318 2°44.973 19.67707 4.688076 34.284691 0.465999
2004-08-20 07:13:25 51°11.313 2°44.956 19.677354 4.689447 34.295935 0.668255
2004-08-20 07:13:32 51°11.301 2°44.918 19.675688 4.689553 34.2968 0.465999
2004-08-20 07:13:36 51°11.294 2°44.897 19.675728 4.688181 34.286134 0.634546
2004-08-20 07:13:42 51°11.284 2°44.864 19.675728 4.688181 34.286134 0.634546
2004-08-20 07:13:45 51°11.279 2°44.847 19.676501 4.688603 34.291328 0.634546
2004-08-20 07:13:52 51°11.267 2°44.809 19.675322 4.688287 34.289312 0.668255
2004-08-20 07:13:56 51°11.259 2°44.787 19.676744 4.688603 34.292485 0.533418
2004-08-20 07:14:00 51°11.253 2°44.766 19.675362 4.687865 34.287586 0.735674
2004-08-20 07:14:05 51°11.244 2°44.738 19.674224 4.688498 34.292198 0.634546
2004-08-20 07:14:12 51°11.231 2°44.7 19.674224 4.688498 34.292198 0.634546
2004-08-20 07:14:17 51°11.223 2°44.673 19.674183 4.687654 34.286435 0.836802
2004-08-20 07:14:20 51°11.217 2°44.657 19.673492 4.687865 34.288165 0.701965
2004-08-20 07:14:25 51°11.209 2°44.63 19.673492 4.688603 34.293642 0.567127
2004-08-20 07:14:32 51°11.197 2°44.592 19.671663 4.688076 34.289895 0.701965
2004-08-20 07:14:36 51°11.19 2°44.571 19.672517 4.688287 34.292203 0.668255
2004-08-20 07:14:40 51°11.183 2°44.549 19.672517 4.688287 34.292203 0.668255
2004-08-20 07:14:44 51°11.176 2°44.528 19.671988 4.688287 34.292203 0.701965
2004-08-20 07:14:52 51°11.162 2°44.484 19.670077 4.687759 34.288456 0.668255
2004-08-20 07:14:56 51°11.155 2°44.463 19.669224 4.688287 34.292782 0.803093
2004-08-20 07:15:00 51°11.149 2°44.441 19.669183 4.687654 34.288748 0.668255
2004-08-20 07:15:05 51°11.14 2°44.414 19.669671 4.688076 34.292208 0.735674
2004-08-20 07:15:12 51°11.129 2°44.375 19.669671 4.688076 34.292208 0.735674
2004-08-20 07:15:16 51°11.122 2°44.354 19.667435 4.687443 34.287017 0.769383
2004-08-20 07:15:22 51°11.112 2°44.321 19.666012 4.687548 34.289039 0.735674
2004-08-20 07:15:27 51°11.103 2°44.294 19.664955 4.687232 34.287601 0.634546
2004-08-20 07:15:32 51°11.095 2°44.267 19.664263 4.686915 34.285005 0.803093
2004-08-20 07:15:36 51°11.088 2°44.245 19.661539 4.688287 34.296831 0.769383
2004-08-20 07:15:40 51°11.081 2°44.224 19.661539 4.688287 34.296831 0.769383
2004-08-20 07:15:47 51°11.069 2°44.186 19.660523 4.65822 34.050389 0.634546
2004-08-20 07:15:52 51°11.061 2°44.159 19.658327 4.664233 34.101956 0.803093
2004-08-20 07:15:57 51°11.052 2°44.131 19.657758 4.685649 34.278093 0.634546
2004-08-20 07:16:02 51°11.044 2°44.104 19.658205 4.687759 34.295397 0.634546
2004-08-20 07:16:05 51°11.039 2°44.088 19.654627 4.686599 34.287615 0.634546
2004-08-20 07:16:12 51°11.026 2°44.049 19.654627 4.686599 34.287615 0.634546
2004-08-20 07:16:17 51°11.018 2°44.022 19.654423 4.686599 34.288772 0.701965
2004-08-20 07:16:25 51°11.004 2°43.978 19.652837 4.684594 34.275223 0.769383
2004-08-20 07:16:32 51°10.991 2°43.94 19.651821 4.685227 34.280994 0.836802
2004-08-20 07:16:37 51°10.982 2°43.913 19.650031 4.6847 34.277824 0.836802
2004-08-20 07:16:40 51°10.977 2°43.897 19.650031 4.6847 34.277824 0.836802
2004-08-20 07:16:44 51°10.971 2°43.875 19.649421 4.684067 34.27321 0.836802
2004-08-20 07:16:52 51°10.957 2°43.831 19.648445 4.685016 34.281577 0.93793
2004-08-20 07:16:57 51°10.949 2°43.803 19.648039 4.684489 34.27725 1.005349
2004-08-20 07:17:00 51°10.944 2°43.787 19.647754 4.684172 34.276389 1.039059
2004-08-20 07:17:06 51°10.934 2°43.754 19.644948 4.683751 34.273506 0.904221
2004-08-20 07:17:12 51°10.924 2°43.721 19.644948 4.683751 34.273506 0.904221
2004-08-20 07:17:16 51°10.917 2°43.699 19.642996 4.683645 34.274376 1.005349
2004-08-20 07:17:20 51°10.911 2°43.677 19.64267 4.682696 34.266008 0.870512
2004-08-20 07:17:24 51°10.904 2°43.656 19.64206 4.68259 34.2663 0.904221
2004-08-20 07:17:32 51°10.89 2°43.612 19.642914 4.682485 34.265434 0.904221
2004-08-20 07:17:36 51°10.883 2°43.59 19.643524 4.681535 34.25938 0.97164
2004-08-20 07:17:42 51°10.873 2°43.557 19.643524 4.681535 34.25938 0.97164
2004-08-20 07:17:47 51°10.865 2°43.53 19.642142 4.681852 34.263133 0.904221
2004-08-20 07:17:52 51°10.856 2°43.503 19.639945 4.682696 34.270057 0.97164
2004-08-20 07:17:56 51°10.849 2°43.48 19.64023 4.682063 34.265442 0.93793
2004-08-20 07:18:02 51°10.84 2°43.447 19.639945 4.681641 34.263137 0.870512
2004-08-20 07:18:07 51°10.834 2°43.418 19.638725 4.681852 34.264868 0.93793
2004-08-20 07:18:12 51°10.829 2°43.389 19.638725 4.681852 34.264868 0.93793
2004-08-20 07:18:16 51°10.826 2°43.365 19.636081 4.680375 34.253329 0.93793
2004-08-20 07:18:22 51°10.824 2°43.329 19.636081 4.680586 34.256217 0.93793
2004-08-20 07:18:27 51°10.823 2°43.298 19.63299 4.681219 34.26141 0.97164
2004-08-20 07:18:32 51°10.822 2°43.268 19.63238 4.68048 34.255351 0.904221
2004-08-20 07:18:37 51°10.822 2°43.237 19.633356 4.681008 34.260257 0.93793
2004-08-20 07:18:40 51°10.822 2°43.219 19.633356 4.681008 34.260257 0.93793
2004-08-20 07:18:46 51°10.822 2°43.182 19.632217 4.679847 34.251893 0.97164
2004-08-20 07:18:52 51°10.823 2°43.145 19.631688 4.68048 34.258243 1.039059
2004-08-20 07:18:57 51°10.823 2°43.114 19.629288 4.680375 34.258534 1.005349
2004-08-20 07:19:02 51°10.824 2°43.083 19.629329 4.679425 34.2519 1.039059
2004-08-20 07:19:05 51°10.824 2°43.064 19.629573 4.679742 34.254497 0.904221
2004-08-20 07:19:12 51°10.826 2°43.021 19.629573 4.679742 34.254497 0.904221
2004-08-20 07:19:17 51°10.827 2°42.99 19.629044 4.679214 34.251325 1.005349
2004-08-20 07:19:20 51°10.828 2°42.971 19.628597 4.679636 34.255945 0.870512
2004-08-20 07:19:24 51°10.829 2°42.947 19.632746 4.679636 34.256523 0.97164
2004-08-20 07:19:32 51°10.832 2°42.897 19.630875 4.678792 34.249598 0.870512
2004-08-20 07:19:36 51°10.833 2°42.873 19.63177 4.67932 34.254505 0.97164
2004-08-20 07:19:40 51°10.834 2°42.848 19.63177 4.67932 34.254505 0.97164
2004-08-20 07:19:46 51°10.836 2°42.811 19.630793 4.679003 34.253064 1.005349
2004-08-20 07:19:52 51°10.838 2°42.774 19.630468 4.680058 34.259986 1.005349
2004-08-20 07:19:56 51°10.839 2°42.749 19.628963 4.679531 34.255658 0.93793
2004-08-20 07:20:00 51°10.84 2°42.724 19.629573 4.679742 34.257389 0.870512
2004-08-20 07:20:05 51°10.842 2°42.693 19.629939 4.679425 34.25537 0.97164
2004-08-20 07:20:12 51°10.844 2°42.65 19.629939 4.679425 34.25537 0.97164
2004-08-20 07:20:17 51°10.846 2°42.619 19.631485 4.679847 34.257676 0.904221
2004-08-20 07:20:20 51°10.847 2°42.6 19.631688 4.675522 34.222763 0.701965
2004-08-20 07:20:26 51°10.849 2°42.563 19.631159 4.679425 34.25537 0.701965
2004-08-20 07:20:32 51°10.852 2°42.526 19.632014 4.679953 34.259699 0.769383
2004-08-20 07:20:37 51°10.854 2°42.495 19.633356 4.680058 34.260565 0.870512
2004-08-20 07:20:42 51°10.857 2°42.464 19.633356 4.680058 34.260565 0.870512
2004-08-20 07:20:45 51°10.859 2°42.446 19.632542 4.679953 34.259121 0.701965
2004-08-20 07:20:52 51°10.863 2°42.403 19.632827 4.679425 34.254792 0.668255
2004-08-20 07:20:57 51°10.866 2°42.372 19.632583 4.68048 34.263449 0.769383
2004-08-20 07:21:00 51°10.868 2°42.354 19.632909 4.680797 34.266046 0.735674
2004-08-20 07:21:04 51°10.87 2°42.329 19.634739 4.680269 34.261139 0.701965
2004-08-20 07:21:12 51°10.875 2°42.28 19.634739 4.680269 34.261139 0.701965
2004-08-20 07:21:16 51°10.877 2°42.255 19.63478 4.681113 34.266908 0.668255
2004-08-20 07:21:20 51°10.879 2°42.231 19.635471 4.680058 34.258829 0.769383
2004-08-20 07:21:26 51°10.881 2°42.194 19.635024 4.680164 34.259695 0.668255
2004-08-20 07:21:32 51°10.884 2°42.157 19.634048 4.68048 34.262292 0.668255
2004-08-20 07:21:37 51°10.887 2°42.126 19.635105 4.681219 34.267773 0.668255
2004-08-20 07:21:42 51°10.89 2°42.096 19.635105 4.681219 34.267773 0.668255
2004-08-20 07:21:45 51°10.891 2°42.077 19.635186 4.681324 34.268639 0.701965
2004-08-20 07:21:52 51°10.895 2°42.035 19.636529 4.682168 34.274986 0.634546
2004-08-20 07:21:57 51°10.898 2°42.004 19.638115 4.680269 34.259404 0.735674
2004-08-20 07:22:02 51°10.901 2°41.973 19.638725 4.681746 34.270945 0.735674
2004-08-20 07:22:07 51°10.904 2°41.943 19.639417 4.681535 34.269213 0.803093
2004-08-20 07:22:12 51°10.907 2°41.912 19.639417 4.681535 34.269213 0.803093
2004-08-20 07:22:17 51°10.91 2°41.881 19.638522 4.681957 34.273255 0.701965
2004-08-20 07:22:20 51°10.911 2°41.863 19.640027 4.682063 34.273542 0.803093
2004-08-20 07:22:26 51°10.915 2°41.826 19.640555 4.681852 34.271232 0.668255
2004-08-20 07:22:32 51°10.918 2°41.79 19.641247 4.681746 34.269209 0.769383
2004-08-20 07:22:37 51°10.918 2°41.759 19.641328 4.681957 34.269783 0.701965
2004-08-20 07:22:40 51°10.918 2°41.741 19.641328 4.681957 34.269783 0.701965
2004-08-20 07:22:44 51°10.917 2°41.717 19.643199 4.682379 34.273246 0.735674
2004-08-20 07:22:52 51°10.911 2°41.67 19.641369 4.681957 34.268626 0.904221
2004-08-20 07:22:56 51°10.907 2°41.647 19.642386 4.68259 34.27382 0.735674
2004-08-20 07:23:02 51°10.899 2°41.613 19.642142 4.681113 34.262858 0.803093
2004-08-20 07:23:07 51°10.891 2°41.586 19.642142 4.68259 34.273241 0.97164
2004-08-20 07:23:12 51°10.883 2°41.559 19.642142 4.68259 34.273241 0.97164
2004-08-20 07:23:17 51°10.874 2°41.533 19.641898 4.681852 34.268339 0.93793
2004-08-20 07:23:20 51°10.868 2°41.517 19.641694 4.682907 34.277574 0.836802
2004-08-20 07:23:24 51°10.861 2°41.497 19.642304 4.68259 34.27382 0.870512
2004-08-20 07:23:32 51°10.845 2°41.455 19.643199 4.682168 34.269779 0.97164
2004-08-20 07:23:36 51°10.837 2°41.435 19.64145 4.683012 34.277282 1.005349
2004-08-20 07:23:42 51°10.824 2°41.405 19.64145 4.683012 34.277282 1.005349
2004-08-20 07:23:45 51°10.818 2°41.39 19.642914 4.683856 34.283629 1.039059
2004-08-20 07:23:52 51°10.802 2°41.356 19.640027 4.683012 34.277282 1.005349
2004-08-20 07:23:57 51°10.79 2°41.332 19.641613 4.682907 34.275259 1.039059
2004-08-20 07:24:00 51°10.783 2°41.318 19.639417 4.683329 34.278722 1.106477
2004-08-20 07:24:04 51°10.773 2°41.299 19.638359 4.683118 34.277569 1.072768
2004-08-20 07:24:12 51°10.754 2°41.262 19.638359 4.683118 34.277569 1.072768
2004-08-20 07:24:16 51°10.744 2°41.244 19.638603 4.68259 34.272084 0.97164
2004-08-20 07:24:26 51°10.719 2°41.198 19.63783 4.682063 34.268913 1.106477
2004-08-20 07:24:32 51°10.704 2°41.17 19.637668 4.682907 34.275838 1.140187
2004-08-20 07:24:36 51°10.694 2°41.151 19.636325 4.68259 34.274398 1.039059
2004-08-20 07:24:42 51°10.679 2°41.124 19.636325 4.68259 34.274398 1.039059
2004-08-20 07:24:45 51°10.672 2°41.11 19.633356 4.682379 34.273824 1.005349
2004-08-20 07:24:52 51°10.654 2°41.078 19.629939 4.68259 34.275556 1.106477
2004-08-20 07:24:57 51°10.641 2°41.055 19.625871 4.682168 34.272093 1.241315
2004-08-20 07:25:05 51°10.622 2°41.018 19.622698 4.682168 34.272093 1.072768
2004-08-20 07:25:10 51°10.609 2°40.995 19.619443 4.683434 34.28306 1.140187
2004-08-20 07:25:15 51°10.597 2°40.972 19.610736 4.681852 34.27181 1.173896
2004-08-20 07:25:20 51°10.584 2°40.949 19.608661 4.682063 34.275278 1.072768
2004-08-20 07:25:24 51°10.574 2°40.93 19.604958 4.682063 34.278172 1.072768
2004-08-20 07:25:31 51°10.557 2°40.897 19.59804 4.681324 34.275005 1.207606
2004-08-20 07:25:36 51°10.545 2°40.873 19.59804 4.681324 34.275005 1.207606
2004-08-20 07:25:40 51°10.536 2°40.855 19.594784 4.681008 34.275881 1.140187
2004-08-20 07:25:46 51°10.522 2°40.827 19.590551 4.680586 34.27647 1.072768
2004-08-20 07:25:50 51°10.512 2°40.808 19.586481 4.679848 34.272724 1.173896
2004-08-20 07:25:56 51°10.497 2°40.78 19.588272 4.680481 34.281975 1.173896
2004-08-20 07:26:00 51°10.488 2°40.761 19.57891 4.68027 34.284297 1.275024
2004-08-20 07:26:04 51°10.478 2°40.743 19.57891 4.68027 34.284297 1.275024
2004-08-20 07:26:12 51°10.458 2°40.705 19.575124 4.678898 34.275352 1.207606
2004-08-20 07:26:16 51°10.448 2°40.687 19.574839 4.678476 34.275363 1.207606
2004-08-20 07:26:26 51°10.424 2°40.64 19.568488 4.678793 34.283757 1.173896
2004-08-20 07:26:31 51°10.411 2°40.617 19.568406 4.677316 34.274523 1.275024
2004-08-20 07:26:36 51°10.399 2°40.593 19.568406 4.677316 34.274523 1.275024
2004-08-20 07:26:40 51°10.389 2°40.575 19.568162 4.677844 34.282913 1.376153
2004-08-20 07:26:46 51°10.374 2°40.547 19.567633 4.677211 34.280032 1.275024
2004-08-20 07:26:48 51°10.369 2°40.537 19.568325 4.676683 34.278017 1.443571
2004-08-20 07:26:56 51°10.35 2°40.5 19.568528 4.676789 34.280044 1.443571
2004-08-20 07:27:00 51°10.34 2°40.481 19.569302 4.677105 34.283804 1.477281
2004-08-20 07:27:04 51°10.331 2°40.463 19.569302 4.677105 34.283804 1.477281
2004-08-20 07:27:10 51°10.316 2°40.434 19.569953 4.676789 34.282363 1.443571
2004-08-20 07:27:16 51°10.302 2°40.406 19.570564 4.677316 34.286697 1.477281
2004-08-20 07:27:20 51°10.293 2°40.387 19.5715 4.67605 34.276875 1.645828
2004-08-20 07:27:26 51°10.278 2°40.358 19.573088 4.676156 34.276582 1.51099
2004-08-20 07:27:28 51°10.274 2°40.349 19.573577 4.676261 34.278028 1.578409
2004-08-20 07:27:35 51°10.257 2°40.315 19.573577 4.676261 34.278028 1.578409
2004-08-20 07:27:40 51°10.245 2°40.291 19.574757 4.676261 34.277449 1.5447
2004-08-20 07:27:46 51°10.23 2°40.263 19.573088 4.675312 34.269067 1.51099
2004-08-20 07:27:48 51°10.225 2°40.253 19.572559 4.676261 34.276289 1.612118
2004-08-20 07:27:55 51°10.208 2°40.22 19.569139 4.675312 34.267329 1.5447
2004-08-20 07:28:00 51°10.196 2°40.196 19.569831 4.675101 34.266754 1.679537
2004-08-20 07:28:04 51°10.187 2°40.177 19.569831 4.675101 34.266754 1.679537
2004-08-20 07:28:10 51°10.173 2°40.148 19.567958 4.675734 34.270216 1.713247
2004-08-20 07:28:16 51°10.158 2°40.12 19.568936 4.675417 34.268195 1.612118
2004-08-20 07:28:26 51°10.134 2°40.072 19.556232 4.675945 34.274268 1.645828
2004-08-20 07:28:32 51°10.119 2°40.044 19.555906 4.675101 34.267913 1.645828
2004-08-20 07:28:36 51°10.11 2°40.025 19.550408 4.674995 34.268206 1.612118
2004-08-20 07:28:42 51°10.095 2°39.997 19.550408 4.674995 34.268206 1.612118
2004-08-20 07:28:45 51°10.088 2°39.983 19.549105 4.674573 34.266477 1.645828
2004-08-20 07:28:52 51°10.071 2°39.949 19.542752 4.674995 34.272844 1.645828
2004-08-20 07:28:57 51°10.059 2°39.925 19.539575 4.674151 34.268227 1.645828
2004-08-20 07:29:05 51°10.04 2°39.887 19.538068 4.674257 34.271414 1.612118
2004-08-20 07:29:10 51°10.028 2°39.863 19.53155 4.67373 34.270558 1.612118
2004-08-20 07:29:15 51°10.016 2°39.839 19.527028 4.674046 34.275479 1.612118
2004-08-20 07:29:20 51°10.004 2°39.815 19.522343 4.673835 34.277226 1.578409
2004-08-20 07:29:24 51°9.995 2°39.796 19.519084 4.67278 34.270873 1.612118
2004-08-20 07:29:31 51°9.978 2°39.763 19.51611 4.67162 34.263653 1.578409
2004-08-20 07:29:36 51°9.965 2°39.739 19.51611 4.67162 34.263653 1.578409
2004-08-20 07:29:40 51°9.955 2°39.72 19.510976 4.672675 34.274648 1.5447
2004-08-20 07:29:46 51°9.941 2°39.692 19.512035 4.671831 34.27235 1.578409
2004-08-20 07:29:50 51°9.932 2°39.672 19.50849 4.671831 34.276413 1.679537
2004-08-20 07:29:55 51°9.92 2°39.649 19.505312 4.670882 34.270927 1.5447
2004-08-20 07:30:01 51°9.905 2°39.62 19.504986 4.671198 34.277593 1.612118
2004-08-20 07:30:06 51°9.894 2°39.596 19.504986 4.671198 34.277593 1.612118
2004-08-20 07:30:11 51°9.882 2°39.572 19.505067 4.670038 34.27037 1.578409
2004-08-20 07:30:16 51°9.87 2°39.548 19.501522 4.670671 34.2779 1.578409
2004-08-20 07:30:20 51°9.86 2°39.529 19.502948 4.67046 34.277906 1.5447
2004-08-20 07:30:25 51°9.849 2°39.505 19.498384 4.670249 34.277913 1.5447
2004-08-20 07:30:31 51°9.834 2°39.476 19.495164 4.669405 34.272131 1.578409
2004-08-20 07:30:36 51°9.822 2°39.452 19.495164 4.669405 34.272131 1.578409
2004-08-20 07:30:45 51°9.801 2°39.41 19.495816 4.669299 34.272424 1.5447
2004-08-20 07:30:50 51°9.789 2°39.386 19.494553 4.670038 34.280243 1.578409
2004-08-20 07:30:55 51°9.776 2°39.362 19.494104 4.669194 34.275622 1.578409
2004-08-20 07:31:00 51°9.765 2°39.338 19.491985 4.669827 34.281993 1.679537
2004-08-20 07:31:04 51°9.755 2°39.318 19.491985 4.669827 34.281993 1.679537
2004-08-20 07:31:10 51°9.742 2°39.288 19.494023 4.670143 34.285178 1.477281
2004-08-20 07:31:15 51°9.733 2°39.261 19.492189 4.670671 34.290682 1.578409
2004-08-20 07:31:20 51°9.724 2°39.234 19.494145 4.669405 34.280844 1.5447
2004-08-20 07:31:24 51°9.718 2°39.211 19.493778 4.669616 34.283743 1.578409
2004-08-20 07:31:31 51°9.709 2°39.171 19.494675 4.668877 34.278828 1.612118
2004-08-20 07:31:36 51°9.705 2°39.141 19.494675 4.668877 34.278828 1.612118
2004-08-20 07:31:41 51°9.704 2°39.111 19.495897 4.670565 34.290976 1.578409
2004-08-20 07:31:45 51°9.705 2°39.087 19.49659 4.66951 34.282875 1.578409
2004-08-20 07:31:51 51°9.709 2°39.051 19.498098 4.669721 34.284611 1.578409
2004-08-20 07:31:56 51°9.714 2°39.023 19.500014 4.670038 34.287216 1.5447
2004-08-20 07:32:01 51°9.722 2°38.996 19.499973 4.669932 34.285185 1.612118
2004-08-20 07:32:04 51°9.728 2°38.981 19.499973 4.669932 34.285185 1.612118
2004-08-20 07:32:11 51°9.744 2°38.948 19.50144 4.670143 34.285759 1.578409
2004-08-20 07:32:16 51°9.756 2°38.925 19.503682 4.66835 34.27042 1.612118
2004-08-20 07:32:20 51°9.765 2°38.906 19.503641 4.669088 34.276497 1.51099
2004-08-20 07:32:26 51°9.779 2°38.877 19.505312 4.67046 34.286039 1.612118
2004-08-20 07:32:31 51°9.791 2°38.852 19.505597 4.669827 34.28025 1.612118
2004-08-20 07:32:36 51°9.803 2°38.828 19.505597 4.669827 34.28025 1.612118
2004-08-20 07:32:40 51°9.812 2°38.808 19.504537 4.670354 34.283428 1.612118
2004-08-20 07:32:45 51°9.824 2°38.784 19.5025 4.670143 34.281111 1.578409
2004-08-20 07:32:51 51°9.838 2°38.754 19.501644 4.670565 34.284002 1.5447
2004-08-20 07:32:56 51°9.85 2°38.73 19.499606 4.670354 34.282266 1.645828
2004-08-20 07:33:00 51°9.859 2°38.71 19.499321 4.670565 34.284002 1.713247
2004-08-20 07:33:05 51°9.871 2°38.685 19.499321 4.670565 34.284002 1.713247
2004-08-20 07:33:11 51°9.886 2°38.656 19.498098 4.670038 34.279081 1.645828
2004-08-20 07:33:16 51°9.898 2°38.631 19.497935 4.670882 34.28835 1.612118
2004-08-20 07:33:21 51°9.911 2°38.607 19.499239 4.670671 34.287195 1.612118
2004-08-20 07:33:25 51°9.92 2°38.587 19.50197 4.670249 34.284303 1.679537
2004-08-20 07:33:31 51°9.935 2°38.557 19.504456 4.670249 34.284884 1.612118
2004-08-20 07:33:36 51°9.947 2°38.532 19.504456 4.670249 34.284884 1.612118
2004-08-20 07:33:39 51°9.954 2°38.518 19.51012 4.668983 34.275048 1.5447
2004-08-20 07:33:44 51°9.966 2°38.493 19.517006 4.670776 34.290387 1.578409
2004-08-20 07:33:50 51°9.981 2°38.464 19.522547 4.670565 34.28807 1.5447
2004-08-20 07:33:55 51°9.993 2°38.439 19.530287 4.670565 34.286908 1.578409
2004-08-20 07:34:00 51°10.005 2°38.415 19.536927 4.67046 34.284877 1.612118
2004-08-20 07:34:06 51°10.019 2°38.386 19.536927 4.67046 34.284877 1.612118
2004-08-20 07:34:10 51°10.029 2°38.366 19.544259 4.670671 34.282547 1.679537
2004-08-20 07:34:16 51°10.044 2°38.337 19.552282 4.671093 34.283114 1.679537
2004-08-20 07:34:21 51°10.056 2°38.313 19.557657 4.671093 34.277306 1.949212
2004-08-20 07:34:25 51°10.066 2°38.293 19.563928 4.671937 34.279603 1.679537
2004-08-20 07:34:31 51°10.082 2°38.264 19.568488 4.672358 34.277269 1.814375
2004-08-20 07:34:36 51°10.094 2°38.24 19.568488 4.672358 34.277269 1.814375
2004-08-20 07:34:39 51°10.101 2°38.226 19.571623 4.67278 34.275515 1.848084
2004-08-20 07:34:44 51°10.113 2°38.202 19.575002 4.67373 34.277519 1.780665
2004-08-20 07:34:50 51°10.128 2°38.172 19.577404 4.674152 34.276347 2.016631
2004-08-20 07:34:55 51°10.14 2°38.147 19.579276 4.674995 34.278643 1.982922
2004-08-20 07:35:00 51°10.15 2°38.121 19.581108 4.675101 34.273711 1.982922
2004-08-20 07:35:06 51°10.161 2°38.089 19.581108 4.675101 34.273711 1.982922
2004-08-20 07:35:10 51°10.167 2°38.067 19.582166 4.675945 34.277747 2.08405
2004-08-20 07:35:16 51°10.174 2°38.032 19.58412 4.676683 34.280336 2.016631
2004-08-20 07:35:21 51°10.179 2°38.003 19.585178 4.677 34.281777 2.151469
2004-08-20 07:35:25 51°10.182 2°37.979 19.586033 4.676894 34.278591 2.117759
2004-08-20 07:35:31 51°10.187 2°37.943 19.586115 4.677211 34.280032 2.218888
2004-08-20 07:35:36 51°10.191 2°37.913 19.586115 4.677211 34.280032 2.218888
2004-08-20 07:35:39 51°10.192 2°37.895 19.586847 4.676789 34.275406 2.117759
2004-08-20 07:35:44 51°10.194 2°37.864 19.588435 4.677633 34.28234 2.320016
2004-08-20 07:35:50 51°10.194 2°37.827 19.590185 4.677422 34.277128 2.320016
2004-08-20 07:35:55 51°10.193 2°37.797 19.593278 4.677 34.274241 2.286306
2004-08-20 07:36:00 51°10.191 2°37.766 19.594336 4.677844 34.280595 2.320016
2004-08-20 07:36:04 51°10.188 2°37.742 19.594336 4.677844 34.280595 2.320016
2004-08-20 07:36:10 51°10.184 2°37.706 19.596453 4.678055 34.281169 2.286306
2004-08-20 07:36:15 51°10.178 2°37.677 19.597389 4.676683 34.269903 2.218888
2004-08-20 07:36:20 51°10.171 2°37.649 19.598121 4.678054 34.277691 2.353725
2004-08-20 07:36:24 51°10.165 2°37.627 19.599261 4.677527 34.272779 2.353725
2004-08-20 07:36:30 51°10.154 2°37.596 19.599586 4.677738 34.273933 2.454853
2004-08-20 07:36:35 51°10.144 2°37.57 19.599586 4.677738 34.273933 2.454853
2004-08-20 07:36:40 51°10.133 2°37.545 19.599627 4.679215 34.284325 2.488563
2004-08-20 07:36:45 51°10.122 2°37.52 19.599708 4.678476 34.27768 2.454853
2004-08-20 07:36:51 51°10.108 2°37.491 19.600115 4.678476 34.276522 2.454853
2004-08-20 07:36:56 51°10.097 2°37.466 19.60154 4.678687 34.277096 2.488563
2004-08-20 07:37:01 51°10.085 2°37.441 19.601174 4.679531 34.282868 2.454853
2004-08-20 07:37:04 51°10.078 2°37.426 19.601174 4.679531 34.282868 2.454853
2004-08-20 07:37:11 51°10.062 2°37.392 19.601784 4.67932 34.281715 2.454853
2004-08-20 07:37:16 51°10.05 2°37.367 19.603737 4.679637 34.281996 2.387435
2004-08-20 07:37:26 51°10.027 2°37.318 19.603941 4.68143 34.295566 2.421144
2004-08-20 07:37:28 51°10.022 2°37.308 19.605609 4.67932 34.277659 2.353725
2004-08-20 07:37:35 51°10.005 2°37.273 19.605609 4.67932 34.277659 2.353725
2004-08-20 07:37:40 51°9.994 2°37.249 19.606382 4.680903 34.290654 2.353725
2004-08-20 07:37:45 51°9.982 2°37.224 19.606952 4.679953 34.281698 2.353725
2004-08-20 07:37:48 51°9.975 2°37.209 19.606464 4.681536 34.294114 2.421144
2004-08-20 07:37:56 51°9.957 2°37.17 19.607603 4.681747 34.295267 2.353725
2004-08-20 07:38:01 51°9.945 2°37.146 19.607196 4.68143 34.292088 2.286306
2004-08-20 07:38:05 51°9.935 2°37.127 19.607196 4.68143 34.292088 2.286306
2004-08-20 07:38:11 51°9.921 2°37.097 19.608051 4.68238 34.298726 2.353725
2004-08-20 07:38:16 51°9.909 2°37.073 19.606626 4.682274 34.298439 2.252597
2004-08-20 07:38:20 51°9.9 2°37.053 19.608987 4.681536 34.291796 2.286306
2004-08-20 07:38:25 51°9.888 2°37.028 19.605162 4.681852 34.293815 2.320016
2004-08-20 07:38:31 51°9.875 2°36.998 19.607522 4.682063 34.295548 2.286306
2004-08-20 07:38:36 51°9.863 2°36.974 19.607522 4.682063 34.295548 2.286306
2004-08-20 07:38:45 51°9.843 2°36.929 19.605731 4.682063 34.295548 2.320016
2004-08-20 07:38:50 51°9.831 2°36.904 19.6039 4.681958 34.294681 2.185178
2004-08-20 07:38:55 51°9.819 2°36.88 19.604429 4.682169 34.296414 2.151469
2004-08-20 07:39:00 51°9.808 2°36.855 19.605243 4.681747 34.292369 2.286306
2004-08-20 07:39:04 51°9.798 2°36.835 19.605243 4.681747 34.292369 2.286306
2004-08-20 07:39:10 51°9.785 2°36.805 19.60215 4.681536 34.292375 2.353725
2004-08-20 07:39:16 51°9.771 2°36.775 19.600685 4.681008 34.287464 2.286306
2004-08-20 07:39:20 51°9.761 2°36.756 19.603697 4.681325 34.290643 2.185178
2004-08-20 07:39:26 51°9.747 2°36.725 19.600238 4.681008 34.288623 2.218888
2004-08-20 07:39:30 51°9.738 2°36.705 19.600685 4.680692 34.286604 2.353725
2004-08-20 07:39:36 51°9.723 2°36.675 19.600685 4.680692 34.286604 2.353725
2004-08-20 07:39:41 51°9.712 2°36.65 19.601092 4.680692 34.286024 2.286306
2004-08-20 07:39:44 51°9.705 2°36.635 19.599505 4.680692 34.287763 2.218888
2004-08-20 07:39:48 51°9.696 2°36.615 19.597836 4.680903 34.289495 2.320016
2004-08-20 07:39:54 51°9.682 2°36.585 19.59686 4.679848 34.280253 2.286306
2004-08-20 07:40:00 51°9.668 2°36.555 19.597674 4.680797 34.289788 2.286306
2004-08-20 07:40:04 51°9.659 2°36.535 19.597674 4.680797 34.289788 2.286306
2004-08-20 07:40:10 51°9.645 2°36.505 19.597429 4.679848 34.281991 2.286306
2004-08-20 07:40:15 51°9.633 2°36.48 19.600848 4.679637 34.280837 2.353725
2004-08-20 07:40:20 51°9.622 2°36.455 19.597755 4.680059 34.284882 2.218888
2004-08-20 07:40:24 51°9.613 2°36.435 19.598488 4.679426 34.280264 2.320016
2004-08-20 07:40:30 51°9.599 2°36.405 19.59979 4.680164 34.286908 2.320016
2004-08-20 07:40:35 51°9.587 2°36.379 19.59979 4.680164 34.286908 2.320016
2004-08-20 07:40:40 51°9.576 2°36.354 19.59865 4.678793 34.275065 2.421144
2004-08-20 07:40:44 51°9.566 2°36.334 19.599871 4.679215 34.277951 2.353725
2004-08-20 07:40:50 51°9.553 2°36.304 19.597836 4.679215 34.277951 2.387435
2004-08-20 07:40:55 51°9.541 2°36.279 19.599505 4.679004 34.276798 2.353725
2004-08-20 07:41:00 51°9.53 2°36.254 19.599953 4.678687 34.27362 2.387435
2004-08-20 07:41:04 51°9.521 2°36.233 19.599953 4.678687 34.27362 2.387435
2004-08-20 07:41:10 51°9.509 2°36.201 19.60097 4.67816 34.269867 2.454853
2004-08-20 07:41:15 51°9.499 2°36.174 19.600156 4.679531 34.28113 2.387435
2004-08-20 07:41:20 51°9.491 2°36.145 19.60215 4.678793 34.274486 2.454853
2004-08-20 07:41:24 51°9.485 2°36.123 19.60329 4.679426 34.279684 2.353725
2004-08-20 07:41:30 51°9.477 2°36.087 19.603045 4.678265 34.268996 2.387435
2004-08-20 07:41:36 51°9.471 2°36.051 19.603045 4.678265 34.268996 2.387435
2004-08-20 07:41:46 51°9.465 2°35.99 19.60683 4.679004 34.273902 2.454853
2004-08-20 07:41:52 51°9.464 2°35.952 19.607684 4.679109 34.274189 2.421144
2004-08-20 07:41:56 51°9.464 2°35.928 19.610411 4.678265 34.267259 2.286306
2004-08-20 07:42:02 51°9.465 2°35.89 19.611753 4.678265 34.266101 2.387435
2004-08-20 07:42:05 51°9.466 2°35.872 19.613829 4.678476 34.267254 2.387435
2004-08-20 07:42:12 51°9.472 2°35.83 19.613829 4.678476 34.267254 2.387435
2004-08-20 07:42:16 51°9.476 2°35.805 19.615171 4.678582 34.266962 2.353725
2004-08-20 07:42:22 51°9.483 2°35.769 19.615415 4.678476 34.264359 2.252597
2004-08-20 07:42:27 51°9.491 2°35.741 19.61631 4.678265 34.262048 2.286306
2004-08-20 07:42:32 51°9.5 2°35.713 19.616229 4.678265 34.260311 2.252597
2004-08-20 07:42:37 51°9.51 2°35.687 19.61745 4.678476 34.260886 2.252597
2004-08-20 07:42:42 51°9.522 2°35.662 19.61745 4.678476 34.260886 2.252597
2004-08-20 07:42:44 51°9.527 2°35.653 19.617612 4.678582 34.260594 2.252597
2004-08-20 07:42:53 51°9.55 2°35.611 19.616921 4.678898 34.262035 2.185178
2004-08-20 07:42:59 51°9.567 2°35.586 19.616107 4.67932 34.26492 2.286306
2004-08-20 07:43:04 51°9.582 2°35.565 19.613869 4.678793 34.260011 2.252597
2004-08-20 07:43:08 51°9.594 2°35.55 19.612527 4.678687 34.259724 2.185178
2004-08-20 07:43:14 51°9.612 2°35.528 19.610411 4.679004 34.261164 2.185178
2004-08-20 07:43:19 51°9.627 2°35.51 19.606993 4.679215 34.262896 2.185178
2004-08-20 07:43:24 51°9.643 2°35.492 19.606993 4.679215 34.262896 2.185178
2004-08-20 07:43:28 51°9.656 2°35.478 19.60215 4.678793 34.26059 2.050341
2004-08-20 07:43:34 51°9.675 2°35.458 19.59861 4.678898 34.261456 2.185178
2004-08-20 07:43:36 51°9.682 2°35.452 19.591976 4.679215 34.26579 2.08405
2004-08-20 07:43:44 51°9.709 2°35.429 19.585545 4.678898 34.26435 2.151469
2004-08-20 07:43:48 51°9.723 2°35.419 19.57948 4.679004 34.26869 2.151469
2004-08-20 07:43:54 51°9.743 2°35.403 19.57948 4.679004 34.26869 2.151469
2004-08-20 07:43:59 51°9.761 2°35.391 19.573617 4.67816 34.265235 2.117759
2004-08-20 07:44:04 51°9.778 2°35.379 19.567226 4.678793 34.273328 2.151469
2004-08-20 07:44:13 51°9.809 2°35.357 19.555295 4.679637 34.286632 2.353725
2004-08-20 07:44:19 51°9.83 2°35.343 19.54601 4.679004 34.28665 2.185178
2004-08-20 07:44:23 51°9.844 2°35.334 19.54601 4.679004 34.28665 2.185178
2004-08-20 07:44:29 51°9.865 2°35.32 19.539371 4.679637 34.297068 2.151469
2004-08-20 07:44:32 51°9.876 2°35.314 19.531387 4.679321 34.299108 2.320016
2004-08-20 07:44:42 51°9.912 2°35.301 19.515906 4.678688 34.297967 2.252597
2004-08-20 07:44:44 51°9.92 2°35.299 19.505271 4.678688 34.306092 2.286306
2004-08-20 07:44:52 51°9.949 2°35.294 19.499932 4.678477 34.308421 2.252597
2004-08-20 07:44:57 51°9.967 2°35.291 19.488642 4.678055 34.310178 2.252597
2004-08-20 07:45:00 51°9.978 2°35.289 19.483873 4.677422 34.312524 2.387435
2004-08-20 07:45:04 51°9.993 2°35.288 19.474497 4.676473 34.311687 2.353725
2004-08-20 07:45:12 51°10.023 2°35.285 19.474497 4.676473 34.311687 2.353725
2004-08-20 07:45:17 51°10.041 2°35.284 19.459044 4.676368 34.318374 2.353725
2004-08-20 07:45:22 51°10.059 2°35.283 19.450847 4.675313 34.317834 2.252597
2004-08-20 07:45:25 51°10.07 2°35.283 19.439794 4.674785 34.321635 2.286306
2004-08-20 07:45:32 51°10.095 2°35.283 19.431432 4.674047 34.319629 2.353725
2004-08-20 07:45:36 51°10.11 2°35.283 19.42213 4.672781 34.317935 2.387435
2004-08-20 07:45:40 51°10.124 2°35.285 19.42213 4.672781 34.317935 2.387435
2004-08-20 07:45:46 51°10.146 2°35.29 19.424252 4.672887 34.328117 2.320016
2004-08-20 07:45:52 51°10.167 2°35.298 19.413521 4.671093 34.322081 2.218888
2004-08-20 07:45:56 51°10.181 2°35.303 19.409033 4.669195 34.312845 2.218888
2004-08-20 07:46:02 51°10.202 2°35.313 19.408135 4.668773 34.318105 2.353725
2004-08-20 07:46:07 51°10.219 2°35.322 19.404585 4.668562 34.324524 2.320016
2004-08-20 07:46:10 51°10.23 2°35.328 19.404585 4.668562 34.324524 2.320016
2004-08-20 07:46:17 51°10.252 2°35.346 19.399646 4.668456 34.326569 2.218888
2004-08-20 07:46:21 51°10.265 2°35.357 19.397565 4.667402 34.323703 2.151469
2004-08-20 07:46:24 51°10.274 2°35.366 19.399687 4.667613 34.330107 2.286306
2004-08-20 07:46:32 51°10.298 2°35.392 19.394382 4.666347 34.321419 2.185178
2004-08-20 07:46:37 51°10.312 2°35.41 19.397932 4.665819 34.31882 2.252597
2004-08-20 07:46:40 51°10.321 2°35.42 19.397932 4.665819 34.31882 2.252597
2004-08-20 07:46:45 51°10.335 2°35.438 19.393851 4.665608 34.320579 2.252597
2004-08-20 07:46:52 51°10.355 2°35.462 19.393933 4.665608 34.323495 2.286306
2004-08-20 07:46:56 51°10.365 2°35.477 19.394749 4.664659 34.316832 2.252597
2004-08-20 07:47:02 51°10.383 2°35.499 19.390586 4.665397 34.322922 2.252597
2004-08-20 07:47:07 51°10.397 2°35.516 19.389075 4.665081 34.321478 2.320016
2004-08-20 07:47:12 51°10.411 2°35.535 19.389075 4.665081 34.321478 2.320016
2004-08-20 07:47:17 51°10.425 2°35.552 19.386585 4.665397 34.324672 2.185178
2004-08-20 07:47:19 51°10.43 2°35.559 19.38781 4.664975 34.323525 2.353725
2004-08-20 07:47:27 51°10.453 2°35.587 19.386585 4.665081 34.324395 2.286306
2004-08-20 07:47:32 51°10.467 2°35.606 19.383769 4.665081 34.326146 2.185178
2004-08-20 07:47:37 51°10.481 2°35.623 19.383973 4.664343 34.321805 2.185178
2004-08-20 07:47:40 51°10.488 2°35.635 19.383973 4.664343 34.321805 2.185178
2004-08-20 07:47:46 51°10.506 2°35.656 19.38385 4.664554 34.324712 2.117759
2004-08-20 07:47:50 51°10.517 2°35.67 19.379401 4.664448 34.324426 2.151469
2004-08-20 07:47:56 51°10.534 2°35.691 19.378258 4.664132 34.321815 2.185178
2004-08-20 07:48:02 51°10.551 2°35.711 19.384299 4.664765 34.329371 2.185178
2004-08-20 07:48:04 51°10.557 2°35.718 19.387116 4.66487 34.331409 2.050341
2004-08-20 07:48:13 51°10.583 2°35.75 19.390218 4.665081 34.333149 2.151469
2004-08-20 07:48:19 51°10.6 2°35.772 19.396422 4.664026 34.325614 2.252597
2004-08-20 07:48:23 51°10.611 2°35.786 19.396422 4.664026 34.325614 2.252597
2004-08-20 07:48:28 51°10.625 2°35.803 19.40132 4.664026 34.326781 2.185178
2004-08-20 07:48:32 51°10.637 2°35.817 19.404666 4.66487 34.332576 2.218888
2004-08-20 07:48:39 51°10.657 2°35.842 19.40891 4.665187 34.333436 2.252597
2004-08-20 07:48:44 51°10.672 2°35.859 19.411603 4.665398 34.332841 2.286306
2004-08-20 07:48:48 51°10.683 2°35.873 19.411603 4.665925 34.332523 2.320016
2004-08-20 07:48:54 51°10.701 2°35.894 19.411603 4.665925 34.332523 2.320016
2004-08-20 07:48:59 51°10.715 2°35.912 19.410094 4.665819 34.328736 2.387435
2004-08-20 07:49:04 51°10.729 2°35.93 19.411073 4.665608 34.322912 2.353725
2004-08-20 07:49:09 51°10.742 2°35.95 19.411563 4.666663 34.329861 2.387435
2004-08-20 07:49:13 51°10.754 2°35.965 19.413725 4.66909 34.347536 2.454853
2004-08-20 07:49:19 51°10.768 2°35.99 19.416745 4.667613 34.334774 2.454853
2004-08-20 07:49:24 51°10.781 2°36.01 19.416745 4.667613 34.334774 2.454853
2004-08-20 07:49:33 51°10.803 2°36.049 19.416541 4.667718 34.334477 2.488563
2004-08-20 07:49:39 51°10.817 2°36.074 19.419723 4.667296 34.330997 2.488563
2004-08-20 07:49:44 51°10.829 2°36.096 19.421763 4.66814 34.33504 2.488563
2004-08-20 07:49:54 51°10.854 2°36.138 19.424782 4.668035 34.333003 2.488563
2004-08-20 07:49:59 51°10.866 2°36.159 19.428413 4.668879 34.339378 2.522272
2004-08-20 07:50:04 51°10.879 2°36.18 19.430616 4.669617 34.344883 2.65711
2004-08-20 07:50:14 51°10.904 2°36.222 19.434614 4.668246 34.33066 2.555982
2004-08-20 07:50:19 51°10.917 2°36.241 19.435267 4.66909 34.335285 2.589691
2004-08-20 07:50:24 51°10.929 2°36.262 19.435267 4.66909 34.335285 2.589691
2004-08-20 07:50:28 51°10.94 2°36.278 19.436042 4.669933 34.341076 2.65711
2004-08-20 07:50:33 51°10.952 2°36.298 19.434451 4.669511 34.335265 2.6234